<?xml version="1.0" encoding="UTF-8" standalone="no" ?>
<gpx xmlns="http://www.topografix.com/GPX/1/1" xmlns:xsi="http://www.w3.org/2001/XMLSchema-instance" xsi:schemaLocation="http://www.topografix.com/GPX/1/1 http://www.topografix.com/GPX/1/1/gpx.xsd" version="1.1" creator="VisuGPX - https://www.visugpx.com">
  <metadata>
    <name>Flavignerot Leuzeu Toppe</name>
    <desc><![CDATA[Flavignerot Leuzeu Toppe]]></desc>
  </metadata>
  <trk>
    <name><![CDATA[20 avr. 2021 10:06:02]]></name>
    <desc><![CDATA[Flavignerot Leuzeu Toppe]]></desc>
    <extensions>
      <line xmlns="http://www.topografix.com/GPX/gpx_style/0/2">
        <color>0000FF</color>
        <width>4</width>
      </line>
    </extensions>
    <trkseg>
      <trkpt lat="47.27797" lon="4.91531">
        <ele>551</ele>
        <time>2021-04-20T08:06:03.000Z</time>
      </trkpt>
      <trkpt lat="47.27807" lon="4.91534">
        <ele>548</ele>
        <time>2021-04-20T08:07:44.000Z</time>
      </trkpt>
      <trkpt lat="47.27815" lon="4.9154">
        <ele>543</ele>
        <time>2021-04-20T08:07:53.000Z</time>
      </trkpt>
      <trkpt lat="47.2782" lon="4.91551">
        <ele>545</ele>
        <time>2021-04-20T08:08:03.000Z</time>
      </trkpt>
      <trkpt lat="47.27828" lon="4.9156">
        <ele>547</ele>
        <time>2021-04-20T08:08:13.000Z</time>
      </trkpt>
      <trkpt lat="47.27826" lon="4.91573">
        <ele>546</ele>
        <time>2021-04-20T08:08:25.000Z</time>
      </trkpt>
      <trkpt lat="47.2783" lon="4.91586">
        <ele>551</ele>
        <time>2021-04-20T08:08:31.000Z</time>
      </trkpt>
      <trkpt lat="47.27836" lon="4.91597">
        <ele>553</ele>
        <time>2021-04-20T08:08:37.000Z</time>
      </trkpt>
      <trkpt lat="47.27841" lon="4.91608">
        <ele>555</ele>
        <time>2021-04-20T08:08:45.000Z</time>
      </trkpt>
      <trkpt lat="47.27841" lon="4.91623">
        <ele>554</ele>
        <time>2021-04-20T08:08:52.000Z</time>
      </trkpt>
      <trkpt lat="47.27846" lon="4.91635">
        <ele>555</ele>
        <time>2021-04-20T08:08:59.000Z</time>
      </trkpt>
      <trkpt lat="47.27851" lon="4.91646">
        <ele>554</ele>
        <time>2021-04-20T08:09:09.000Z</time>
      </trkpt>
      <trkpt lat="47.27861" lon="4.91648">
        <ele>554</ele>
        <time>2021-04-20T08:09:17.000Z</time>
      </trkpt>
      <trkpt lat="47.2787" lon="4.9165">
        <ele>551</ele>
        <time>2021-04-20T08:09:25.000Z</time>
      </trkpt>
      <trkpt lat="47.27879" lon="4.91646">
        <ele>547</ele>
        <time>2021-04-20T08:09:32.000Z</time>
      </trkpt>
      <trkpt lat="47.27888" lon="4.91649">
        <ele>554</ele>
        <time>2021-04-20T08:09:45.000Z</time>
      </trkpt>
      <trkpt lat="47.27898" lon="4.9165">
        <ele>554</ele>
        <time>2021-04-20T08:09:53.000Z</time>
      </trkpt>
      <trkpt lat="47.27907" lon="4.91648">
        <ele>555</ele>
        <time>2021-04-20T08:09:59.000Z</time>
      </trkpt>
      <trkpt lat="47.27916" lon="4.91651">
        <ele>552</ele>
        <time>2021-04-20T08:10:11.000Z</time>
      </trkpt>
      <trkpt lat="47.27926" lon="4.91648">
        <ele>553</ele>
        <time>2021-04-20T08:10:18.000Z</time>
      </trkpt>
      <trkpt lat="47.27935" lon="4.91646">
        <ele>553</ele>
        <time>2021-04-20T08:10:26.000Z</time>
      </trkpt>
      <trkpt lat="47.27945" lon="4.91641">
        <ele>555</ele>
        <time>2021-04-20T08:10:33.000Z</time>
      </trkpt>
      <trkpt lat="47.27953" lon="4.91635">
        <ele>553</ele>
        <time>2021-04-20T08:10:39.000Z</time>
      </trkpt>
      <trkpt lat="47.27962" lon="4.91632">
        <ele>558</ele>
        <time>2021-04-20T08:10:45.000Z</time>
      </trkpt>
      <trkpt lat="47.27971" lon="4.91634">
        <ele>555</ele>
        <time>2021-04-20T08:10:54.000Z</time>
      </trkpt>
      <trkpt lat="47.2798" lon="4.91638">
        <ele>556</ele>
        <time>2021-04-20T08:11:00.000Z</time>
      </trkpt>
      <trkpt lat="47.27989" lon="4.91642">
        <ele>559</ele>
        <time>2021-04-20T08:11:05.000Z</time>
      </trkpt>
      <trkpt lat="47.27996" lon="4.91652">
        <ele>564</ele>
        <time>2021-04-20T08:11:19.000Z</time>
      </trkpt>
      <trkpt lat="47.28006" lon="4.91655">
        <ele>568</ele>
        <time>2021-04-20T08:11:25.000Z</time>
      </trkpt>
      <trkpt lat="47.28012" lon="4.91667">
        <ele>568</ele>
        <time>2021-04-20T08:11:33.000Z</time>
      </trkpt>
      <trkpt lat="47.28017" lon="4.91679">
        <ele>566</ele>
        <time>2021-04-20T08:11:44.000Z</time>
      </trkpt>
      <trkpt lat="47.28022" lon="4.91692">
        <ele>564</ele>
        <time>2021-04-20T08:11:54.000Z</time>
      </trkpt>
      <trkpt lat="47.28028" lon="4.91704">
        <ele>567</ele>
        <time>2021-04-20T08:12:04.000Z</time>
      </trkpt>
      <trkpt lat="47.28033" lon="4.91716">
        <ele>567</ele>
        <time>2021-04-20T08:12:15.000Z</time>
      </trkpt>
      <trkpt lat="47.2804" lon="4.91724">
        <ele>567</ele>
        <time>2021-04-20T08:12:24.000Z</time>
      </trkpt>
      <trkpt lat="47.28045" lon="4.91735">
        <ele>571</ele>
        <time>2021-04-20T08:12:33.000Z</time>
      </trkpt>
      <trkpt lat="47.28054" lon="4.9174">
        <ele>573</ele>
        <time>2021-04-20T08:12:39.000Z</time>
      </trkpt>
      <trkpt lat="47.28063" lon="4.91743">
        <ele>572</ele>
        <time>2021-04-20T08:12:49.000Z</time>
      </trkpt>
      <trkpt lat="47.28069" lon="4.91754">
        <ele>574</ele>
        <time>2021-04-20T08:12:56.000Z</time>
      </trkpt>
      <trkpt lat="47.28079" lon="4.91755">
        <ele>576</ele>
        <time>2021-04-20T08:13:08.000Z</time>
      </trkpt>
      <trkpt lat="47.28088" lon="4.91755">
        <ele>578</ele>
        <time>2021-04-20T08:13:14.000Z</time>
      </trkpt>
      <trkpt lat="47.28096" lon="4.91763">
        <ele>566</ele>
        <time>2021-04-20T08:13:21.000Z</time>
      </trkpt>
      <trkpt lat="47.28105" lon="4.91766">
        <ele>568</ele>
        <time>2021-04-20T08:13:27.000Z</time>
      </trkpt>
      <trkpt lat="47.28118" lon="4.91768">
        <ele>565</ele>
        <time>2021-04-20T08:13:55.000Z</time>
      </trkpt>
      <trkpt lat="47.28127" lon="4.91773">
        <ele>565</ele>
        <time>2021-04-20T08:14:02.000Z</time>
      </trkpt>
      <trkpt lat="47.28137" lon="4.91775">
        <ele>564</ele>
        <time>2021-04-20T08:14:17.000Z</time>
      </trkpt>
      <trkpt lat="47.28146" lon="4.91778">
        <ele>567</ele>
        <time>2021-04-20T08:14:25.000Z</time>
      </trkpt>
      <trkpt lat="47.28158" lon="4.91782">
        <ele>566</ele>
        <time>2021-04-20T08:14:35.000Z</time>
      </trkpt>
      <trkpt lat="47.28167" lon="4.91779">
        <ele>567</ele>
        <time>2021-04-20T08:14:42.000Z</time>
      </trkpt>
      <trkpt lat="47.28178" lon="4.91777">
        <ele>568</ele>
        <time>2021-04-20T08:14:49.000Z</time>
      </trkpt>
      <trkpt lat="47.28188" lon="4.91779">
        <ele>566</ele>
        <time>2021-04-20T08:14:57.000Z</time>
      </trkpt>
      <trkpt lat="47.28202" lon="4.91774">
        <ele>567</ele>
        <time>2021-04-20T08:15:06.000Z</time>
      </trkpt>
      <trkpt lat="47.28215" lon="4.91776">
        <ele>568</ele>
        <time>2021-04-20T08:15:16.000Z</time>
      </trkpt>
      <trkpt lat="47.28226" lon="4.91771">
        <ele>568</ele>
        <time>2021-04-20T08:15:24.000Z</time>
      </trkpt>
      <trkpt lat="47.28235" lon="4.91764">
        <ele>573</ele>
        <time>2021-04-20T08:15:29.000Z</time>
      </trkpt>
      <trkpt lat="47.28247" lon="4.91759">
        <ele>568</ele>
        <time>2021-04-20T08:15:40.000Z</time>
      </trkpt>
      <trkpt lat="47.28259" lon="4.91764">
        <ele>570</ele>
        <time>2021-04-20T08:15:55.000Z</time>
      </trkpt>
      <trkpt lat="47.28271" lon="4.91766">
        <ele>563</ele>
        <time>2021-04-20T08:16:07.000Z</time>
      </trkpt>
      <trkpt lat="47.28281" lon="4.91758">
        <ele>564</ele>
        <time>2021-04-20T08:16:15.000Z</time>
      </trkpt>
      <trkpt lat="47.28291" lon="4.91756">
        <ele>565</ele>
        <time>2021-04-20T08:16:23.000Z</time>
      </trkpt>
      <trkpt lat="47.28301" lon="4.91748">
        <ele>565</ele>
        <time>2021-04-20T08:16:31.000Z</time>
      </trkpt>
      <trkpt lat="47.28311" lon="4.91752">
        <ele>561</ele>
        <time>2021-04-20T08:16:40.000Z</time>
      </trkpt>
      <trkpt lat="47.28322" lon="4.91752">
        <ele>566</ele>
        <time>2021-04-20T08:16:48.000Z</time>
      </trkpt>
      <trkpt lat="47.28334" lon="4.91755">
        <ele>566</ele>
        <time>2021-04-20T08:16:58.000Z</time>
      </trkpt>
      <trkpt lat="47.28344" lon="4.91761">
        <ele>568</ele>
        <time>2021-04-20T08:17:07.000Z</time>
      </trkpt>
      <trkpt lat="47.28353" lon="4.91765">
        <ele>565</ele>
        <time>2021-04-20T08:17:16.000Z</time>
      </trkpt>
      <trkpt lat="47.28363" lon="4.91771">
        <ele>562</ele>
        <time>2021-04-20T08:17:25.000Z</time>
      </trkpt>
      <trkpt lat="47.28374" lon="4.91775">
        <ele>560</ele>
        <time>2021-04-20T08:17:33.000Z</time>
      </trkpt>
      <trkpt lat="47.28385" lon="4.91778">
        <ele>561</ele>
        <time>2021-04-20T08:17:42.000Z</time>
      </trkpt>
      <trkpt lat="47.28396" lon="4.91784">
        <ele>561</ele>
        <time>2021-04-20T08:17:54.000Z</time>
      </trkpt>
      <trkpt lat="47.28405" lon="4.91792">
        <ele>561</ele>
        <time>2021-04-20T08:18:03.000Z</time>
      </trkpt>
      <trkpt lat="47.28416" lon="4.91797">
        <ele>558</ele>
        <time>2021-04-20T08:18:10.000Z</time>
      </trkpt>
      <trkpt lat="47.28427" lon="4.918">
        <ele>562</ele>
        <time>2021-04-20T08:18:15.000Z</time>
      </trkpt>
      <trkpt lat="47.28435" lon="4.91806">
        <ele>561</ele>
        <time>2021-04-20T08:18:25.000Z</time>
      </trkpt>
      <trkpt lat="47.28443" lon="4.91814">
        <ele>561</ele>
        <time>2021-04-20T08:18:38.000Z</time>
      </trkpt>
      <trkpt lat="47.28453" lon="4.91814">
        <ele>561</ele>
        <time>2021-04-20T08:18:50.000Z</time>
      </trkpt>
      <trkpt lat="47.28462" lon="4.9182">
        <ele>558</ele>
        <time>2021-04-20T08:18:59.000Z</time>
      </trkpt>
      <trkpt lat="47.28471" lon="4.91821">
        <ele>561</ele>
        <time>2021-04-20T08:19:07.000Z</time>
      </trkpt>
      <trkpt lat="47.28482" lon="4.91824">
        <ele>559</ele>
        <time>2021-04-20T08:19:16.000Z</time>
      </trkpt>
      <trkpt lat="47.28495" lon="4.9182">
        <ele>558</ele>
        <time>2021-04-20T08:19:25.000Z</time>
      </trkpt>
      <trkpt lat="47.28504" lon="4.91812">
        <ele>561</ele>
        <time>2021-04-20T08:19:33.000Z</time>
      </trkpt>
      <trkpt lat="47.28513" lon="4.91809">
        <ele>561</ele>
        <time>2021-04-20T08:19:50.000Z</time>
      </trkpt>
      <trkpt lat="47.28522" lon="4.91814">
        <ele>559</ele>
        <time>2021-04-20T08:19:59.000Z</time>
      </trkpt>
      <trkpt lat="47.28531" lon="4.91823">
        <ele>556</ele>
        <time>2021-04-20T08:20:08.000Z</time>
      </trkpt>
      <trkpt lat="47.28542" lon="4.91825">
        <ele>560</ele>
        <time>2021-04-20T08:20:18.000Z</time>
      </trkpt>
      <trkpt lat="47.28552" lon="4.91824">
        <ele>559</ele>
        <time>2021-04-20T08:20:28.000Z</time>
      </trkpt>
      <trkpt lat="47.28563" lon="4.91824">
        <ele>558</ele>
        <time>2021-04-20T08:20:34.000Z</time>
      </trkpt>
      <trkpt lat="47.28573" lon="4.91828">
        <ele>554</ele>
        <time>2021-04-20T08:20:45.000Z</time>
      </trkpt>
      <trkpt lat="47.28582" lon="4.91825">
        <ele>559</ele>
        <time>2021-04-20T08:21:08.000Z</time>
      </trkpt>
      <trkpt lat="47.28568" lon="4.91832">
        <ele>560</ele>
        <time>2021-04-20T08:21:47.000Z</time>
      </trkpt>
      <trkpt lat="47.28561" lon="4.91841">
        <ele>564</ele>
        <time>2021-04-20T08:21:52.000Z</time>
      </trkpt>
      <trkpt lat="47.28552" lon="4.91821">
        <ele>569</ele>
        <time>2021-04-20T08:21:56.000Z</time>
      </trkpt>
      <trkpt lat="47.28541" lon="4.91825">
        <ele>571</ele>
        <time>2021-04-20T08:22:00.000Z</time>
      </trkpt>
      <trkpt lat="47.2853" lon="4.9183">
        <ele>569</ele>
        <time>2021-04-20T08:22:11.000Z</time>
      </trkpt>
      <trkpt lat="47.28517" lon="4.91828">
        <ele>570</ele>
        <time>2021-04-20T08:22:21.000Z</time>
      </trkpt>
      <trkpt lat="47.28505" lon="4.91823">
        <ele>573</ele>
        <time>2021-04-20T08:22:30.000Z</time>
      </trkpt>
      <trkpt lat="47.28513" lon="4.91816">
        <ele>567</ele>
        <time>2021-04-20T08:23:25.000Z</time>
      </trkpt>
      <trkpt lat="47.28522" lon="4.9181">
        <ele>570</ele>
        <time>2021-04-20T08:23:30.000Z</time>
      </trkpt>
      <trkpt lat="47.28531" lon="4.91806">
        <ele>565</ele>
        <time>2021-04-20T08:23:36.000Z</time>
      </trkpt>
      <trkpt lat="47.28539" lon="4.91797">
        <ele>568</ele>
        <time>2021-04-20T08:23:43.000Z</time>
      </trkpt>
      <trkpt lat="47.28545" lon="4.91787">
        <ele>571</ele>
        <time>2021-04-20T08:23:49.000Z</time>
      </trkpt>
      <trkpt lat="47.28557" lon="4.91786">
        <ele>562</ele>
        <time>2021-04-20T08:23:59.000Z</time>
      </trkpt>
      <trkpt lat="47.28567" lon="4.9179">
        <ele>558</ele>
        <time>2021-04-20T08:25:33.000Z</time>
      </trkpt>
      <trkpt lat="47.2858" lon="4.91797">
        <ele>555</ele>
        <time>2021-04-20T08:25:40.000Z</time>
      </trkpt>
      <trkpt lat="47.28592" lon="4.91801">
        <ele>553</ele>
        <time>2021-04-20T08:25:48.000Z</time>
      </trkpt>
      <trkpt lat="47.28602" lon="4.91797">
        <ele>556</ele>
        <time>2021-04-20T08:25:56.000Z</time>
      </trkpt>
      <trkpt lat="47.28609" lon="4.91789">
        <ele>555</ele>
        <time>2021-04-20T08:26:11.000Z</time>
      </trkpt>
      <trkpt lat="47.28619" lon="4.9179">
        <ele>557</ele>
        <time>2021-04-20T08:26:38.000Z</time>
      </trkpt>
      <trkpt lat="47.28631" lon="4.91792">
        <ele>562</ele>
        <time>2021-04-20T08:26:45.000Z</time>
      </trkpt>
      <trkpt lat="47.2864" lon="4.91783">
        <ele>552</ele>
        <time>2021-04-20T08:28:48.000Z</time>
      </trkpt>
      <trkpt lat="47.28644" lon="4.91767">
        <ele>546</ele>
        <time>2021-04-20T08:28:55.000Z</time>
      </trkpt>
      <trkpt lat="47.28649" lon="4.91755">
        <ele>547</ele>
        <time>2021-04-20T08:29:05.000Z</time>
      </trkpt>
      <trkpt lat="47.28657" lon="4.91749">
        <ele>542</ele>
        <time>2021-04-20T08:29:37.000Z</time>
      </trkpt>
      <trkpt lat="47.28654" lon="4.91736">
        <ele>535</ele>
        <time>2021-04-20T08:31:44.000Z</time>
      </trkpt>
      <trkpt lat="47.28656" lon="4.91723">
        <ele>533</ele>
        <time>2021-04-20T08:31:52.000Z</time>
      </trkpt>
      <trkpt lat="47.28661" lon="4.91707">
        <ele>526</ele>
        <time>2021-04-20T08:32:03.000Z</time>
      </trkpt>
      <trkpt lat="47.2866" lon="4.91692">
        <ele>525</ele>
        <time>2021-04-20T08:32:18.000Z</time>
      </trkpt>
      <trkpt lat="47.28659" lon="4.91678">
        <ele>527</ele>
        <time>2021-04-20T08:32:54.000Z</time>
      </trkpt>
      <trkpt lat="47.28667" lon="4.91664">
        <ele>521</ele>
        <time>2021-04-20T08:33:04.000Z</time>
      </trkpt>
      <trkpt lat="47.28673" lon="4.91652">
        <ele>513</ele>
        <time>2021-04-20T08:33:13.000Z</time>
      </trkpt>
      <trkpt lat="47.28678" lon="4.91635">
        <ele>514</ele>
        <time>2021-04-20T08:33:20.000Z</time>
      </trkpt>
      <trkpt lat="47.28682" lon="4.91618">
        <ele>514</ele>
        <time>2021-04-20T08:33:25.000Z</time>
      </trkpt>
      <trkpt lat="47.28682" lon="4.91602">
        <ele>514</ele>
        <time>2021-04-20T08:34:26.000Z</time>
      </trkpt>
      <trkpt lat="47.28683" lon="4.91568">
        <ele>507</ele>
        <time>2021-04-20T08:34:52.000Z</time>
      </trkpt>
      <trkpt lat="47.28681" lon="4.91593">
        <ele>513</ele>
        <time>2021-04-20T08:35:02.000Z</time>
      </trkpt>
      <trkpt lat="47.28689" lon="4.91582">
        <ele>509</ele>
        <time>2021-04-20T08:37:47.000Z</time>
      </trkpt>
      <trkpt lat="47.28697" lon="4.9157">
        <ele>513</ele>
        <time>2021-04-20T08:37:52.000Z</time>
      </trkpt>
      <trkpt lat="47.28703" lon="4.91556">
        <ele>506</ele>
        <time>2021-04-20T08:37:57.000Z</time>
      </trkpt>
      <trkpt lat="47.28711" lon="4.91546">
        <ele>504</ele>
        <time>2021-04-20T08:38:04.000Z</time>
      </trkpt>
      <trkpt lat="47.28718" lon="4.91534">
        <ele>503</ele>
        <time>2021-04-20T08:38:07.000Z</time>
      </trkpt>
      <trkpt lat="47.28723" lon="4.91513">
        <ele>495</ele>
        <time>2021-04-20T08:38:13.000Z</time>
      </trkpt>
      <trkpt lat="47.28731" lon="4.91502">
        <ele>485</ele>
        <time>2021-04-20T08:40:26.000Z</time>
      </trkpt>
      <trkpt lat="47.2874" lon="4.91487">
        <ele>480</ele>
        <time>2021-04-20T08:40:49.000Z</time>
      </trkpt>
      <trkpt lat="47.28744" lon="4.91475">
        <ele>479</ele>
        <time>2021-04-20T08:40:52.000Z</time>
      </trkpt>
      <trkpt lat="47.28748" lon="4.91463">
        <ele>480</ele>
        <time>2021-04-20T08:41:02.000Z</time>
      </trkpt>
      <trkpt lat="47.28753" lon="4.9145">
        <ele>485</ele>
        <time>2021-04-20T08:41:30.000Z</time>
      </trkpt>
      <trkpt lat="47.28758" lon="4.91438">
        <ele>483</ele>
        <time>2021-04-20T08:41:34.000Z</time>
      </trkpt>
      <trkpt lat="47.28763" lon="4.91424">
        <ele>488</ele>
        <time>2021-04-20T08:42:19.000Z</time>
      </trkpt>
      <trkpt lat="47.28773" lon="4.91409">
        <ele>487</ele>
        <time>2021-04-20T08:42:25.000Z</time>
      </trkpt>
      <trkpt lat="47.2878" lon="4.91402">
        <ele>484</ele>
        <time>2021-04-20T08:42:41.000Z</time>
      </trkpt>
      <trkpt lat="47.28788" lon="4.91392">
        <ele>485</ele>
        <time>2021-04-20T08:43:34.000Z</time>
      </trkpt>
      <trkpt lat="47.28795" lon="4.91377">
        <ele>488</ele>
        <time>2021-04-20T08:43:42.000Z</time>
      </trkpt>
      <trkpt lat="47.28805" lon="4.91368">
        <ele>488</ele>
        <time>2021-04-20T08:43:48.000Z</time>
      </trkpt>
      <trkpt lat="47.28817" lon="4.91356">
        <ele>532</ele>
        <time>2021-04-20T08:43:54.000Z</time>
      </trkpt>
      <trkpt lat="47.28822" lon="4.91342">
        <ele>509</ele>
        <time>2021-04-20T08:44:00.000Z</time>
      </trkpt>
      <trkpt lat="47.28827" lon="4.91329">
        <ele>488</ele>
        <time>2021-04-20T08:44:52.000Z</time>
      </trkpt>
      <trkpt lat="47.28835" lon="4.91322">
        <ele>486</ele>
        <time>2021-04-20T08:44:56.000Z</time>
      </trkpt>
      <trkpt lat="47.28841" lon="4.91307">
        <ele>485</ele>
        <time>2021-04-20T08:45:02.000Z</time>
      </trkpt>
      <trkpt lat="47.28847" lon="4.91295">
        <ele>485</ele>
        <time>2021-04-20T08:45:32.000Z</time>
      </trkpt>
      <trkpt lat="47.28853" lon="4.91283">
        <ele>483</ele>
        <time>2021-04-20T08:45:38.000Z</time>
      </trkpt>
      <trkpt lat="47.28863" lon="4.9127">
        <ele>474</ele>
        <time>2021-04-20T08:46:18.000Z</time>
      </trkpt>
      <trkpt lat="47.28871" lon="4.91263">
        <ele>467</ele>
        <time>2021-04-20T08:46:29.000Z</time>
      </trkpt>
      <trkpt lat="47.28878" lon="4.91254">
        <ele>461</ele>
        <time>2021-04-20T08:46:49.000Z</time>
      </trkpt>
      <trkpt lat="47.28885" lon="4.91246">
        <ele>456</ele>
        <time>2021-04-20T08:47:37.000Z</time>
      </trkpt>
      <trkpt lat="47.28893" lon="4.91231">
        <ele>451</ele>
        <time>2021-04-20T08:47:45.000Z</time>
      </trkpt>
      <trkpt lat="47.28904" lon="4.91223">
        <ele>451</ele>
        <time>2021-04-20T08:47:51.000Z</time>
      </trkpt>
      <trkpt lat="47.28913" lon="4.91213">
        <ele>445</ele>
        <time>2021-04-20T08:48:31.000Z</time>
      </trkpt>
      <trkpt lat="47.28923" lon="4.91199">
        <ele>432</ele>
        <time>2021-04-20T08:48:37.000Z</time>
      </trkpt>
      <trkpt lat="47.28932" lon="4.91191">
        <ele>525</ele>
        <time>2021-04-20T08:48:40.000Z</time>
      </trkpt>
      <trkpt lat="47.28939" lon="4.91178">
        <ele>497</ele>
        <time>2021-04-20T08:48:46.000Z</time>
      </trkpt>
      <trkpt lat="47.28946" lon="4.91167">
        <ele>448</ele>
        <time>2021-04-20T08:48:55.000Z</time>
      </trkpt>
      <trkpt lat="47.28939" lon="4.9116">
        <ele>430</ele>
        <time>2021-04-20T08:49:06.000Z</time>
      </trkpt>
      <trkpt lat="47.28933" lon="4.91149">
        <ele>411</ele>
        <time>2021-04-20T08:50:06.000Z</time>
      </trkpt>
      <trkpt lat="47.28924" lon="4.91145">
        <ele>407</ele>
        <time>2021-04-20T08:50:12.000Z</time>
      </trkpt>
      <trkpt lat="47.28916" lon="4.91136">
        <ele>400</ele>
        <time>2021-04-20T08:50:18.000Z</time>
      </trkpt>
      <trkpt lat="47.28906" lon="4.91135">
        <ele>397</ele>
        <time>2021-04-20T08:50:24.000Z</time>
      </trkpt>
      <trkpt lat="47.28894" lon="4.91131">
        <ele>393</ele>
        <time>2021-04-20T08:50:32.000Z</time>
      </trkpt>
      <trkpt lat="47.28884" lon="4.91132">
        <ele>388</ele>
        <time>2021-04-20T08:50:38.000Z</time>
      </trkpt>
      <trkpt lat="47.28875" lon="4.91124">
        <ele>389</ele>
        <time>2021-04-20T08:50:44.000Z</time>
      </trkpt>
      <trkpt lat="47.28863" lon="4.91118">
        <ele>384</ele>
        <time>2021-04-20T08:50:54.000Z</time>
      </trkpt>
      <trkpt lat="47.28852" lon="4.91117">
        <ele>381</ele>
        <time>2021-04-20T08:51:01.000Z</time>
      </trkpt>
      <trkpt lat="47.28842" lon="4.91112">
        <ele>380</ele>
        <time>2021-04-20T08:51:13.000Z</time>
      </trkpt>
      <trkpt lat="47.28833" lon="4.91105">
        <ele>381</ele>
        <time>2021-04-20T08:51:27.000Z</time>
      </trkpt>
      <trkpt lat="47.2883" lon="4.91088">
        <ele>384</ele>
        <time>2021-04-20T08:51:36.000Z</time>
      </trkpt>
      <trkpt lat="47.28824" lon="4.91078">
        <ele>389</ele>
        <time>2021-04-20T08:51:43.000Z</time>
      </trkpt>
      <trkpt lat="47.28813" lon="4.91078">
        <ele>384</ele>
        <time>2021-04-20T08:51:50.000Z</time>
      </trkpt>
      <trkpt lat="47.28806" lon="4.91069">
        <ele>383</ele>
        <time>2021-04-20T08:52:04.000Z</time>
      </trkpt>
      <trkpt lat="47.28797" lon="4.91057">
        <ele>377</ele>
        <time>2021-04-20T08:52:13.000Z</time>
      </trkpt>
      <trkpt lat="47.28788" lon="4.91058">
        <ele>374</ele>
        <time>2021-04-20T08:52:30.000Z</time>
      </trkpt>
      <trkpt lat="47.28781" lon="4.91049">
        <ele>372</ele>
        <time>2021-04-20T08:52:40.000Z</time>
      </trkpt>
      <trkpt lat="47.28774" lon="4.91034">
        <ele>371</ele>
        <time>2021-04-20T08:52:50.000Z</time>
      </trkpt>
      <trkpt lat="47.28768" lon="4.91024">
        <ele>367</ele>
        <time>2021-04-20T08:53:01.000Z</time>
      </trkpt>
      <trkpt lat="47.28758" lon="4.91028">
        <ele>372</ele>
        <time>2021-04-20T08:53:12.000Z</time>
      </trkpt>
      <trkpt lat="47.28749" lon="4.9103">
        <ele>375</ele>
        <time>2021-04-20T08:53:24.000Z</time>
      </trkpt>
      <trkpt lat="47.28742" lon="4.9102">
        <ele>375</ele>
        <time>2021-04-20T08:54:15.000Z</time>
      </trkpt>
      <trkpt lat="47.28734" lon="4.9101">
        <ele>384</ele>
        <time>2021-04-20T08:55:14.000Z</time>
      </trkpt>
      <trkpt lat="47.28724" lon="4.91008">
        <ele>388</ele>
        <time>2021-04-20T08:55:36.000Z</time>
      </trkpt>
      <trkpt lat="47.28715" lon="4.91003">
        <ele>388</ele>
        <time>2021-04-20T08:56:21.000Z</time>
      </trkpt>
      <trkpt lat="47.28707" lon="4.90998">
        <ele>384</ele>
        <time>2021-04-20T08:56:32.000Z</time>
      </trkpt>
      <trkpt lat="47.28696" lon="4.90993">
        <ele>384</ele>
        <time>2021-04-20T08:56:41.000Z</time>
      </trkpt>
      <trkpt lat="47.28687" lon="4.90989">
        <ele>386</ele>
        <time>2021-04-20T08:56:48.000Z</time>
      </trkpt>
      <trkpt lat="47.28682" lon="4.90976">
        <ele>386</ele>
        <time>2021-04-20T08:56:55.000Z</time>
      </trkpt>
      <trkpt lat="47.28673" lon="4.90969">
        <ele>381</ele>
        <time>2021-04-20T08:57:05.000Z</time>
      </trkpt>
      <trkpt lat="47.28663" lon="4.90956">
        <ele>382</ele>
        <time>2021-04-20T08:57:16.000Z</time>
      </trkpt>
      <trkpt lat="47.28652" lon="4.90946">
        <ele>377</ele>
        <time>2021-04-20T08:57:22.000Z</time>
      </trkpt>
      <trkpt lat="47.28645" lon="4.90935">
        <ele>380</ele>
        <time>2021-04-20T08:57:30.000Z</time>
      </trkpt>
      <trkpt lat="47.28633" lon="4.90933">
        <ele>375</ele>
        <time>2021-04-20T08:57:42.000Z</time>
      </trkpt>
      <trkpt lat="47.28626" lon="4.90921">
        <ele>378</ele>
        <time>2021-04-20T08:57:51.000Z</time>
      </trkpt>
      <trkpt lat="47.28616" lon="4.90917">
        <ele>377</ele>
        <time>2021-04-20T08:58:00.000Z</time>
      </trkpt>
      <trkpt lat="47.28606" lon="4.90916">
        <ele>377</ele>
        <time>2021-04-20T08:58:11.000Z</time>
      </trkpt>
      <trkpt lat="47.28601" lon="4.90904">
        <ele>381</ele>
        <time>2021-04-20T08:58:22.000Z</time>
      </trkpt>
      <trkpt lat="47.28589" lon="4.90902">
        <ele>381</ele>
        <time>2021-04-20T08:58:31.000Z</time>
      </trkpt>
      <trkpt lat="47.28584" lon="4.90889">
        <ele>380</ele>
        <time>2021-04-20T08:58:40.000Z</time>
      </trkpt>
      <trkpt lat="47.28577" lon="4.90878">
        <ele>379</ele>
        <time>2021-04-20T08:58:50.000Z</time>
      </trkpt>
      <trkpt lat="47.28564" lon="4.90875">
        <ele>378</ele>
        <time>2021-04-20T08:58:59.000Z</time>
      </trkpt>
      <trkpt lat="47.28555" lon="4.90873">
        <ele>376</ele>
        <time>2021-04-20T08:59:07.000Z</time>
      </trkpt>
      <trkpt lat="47.28546" lon="4.9088">
        <ele>373</ele>
        <time>2021-04-20T08:59:14.000Z</time>
      </trkpt>
      <trkpt lat="47.28537" lon="4.90881">
        <ele>374</ele>
        <time>2021-04-20T08:59:24.000Z</time>
      </trkpt>
      <trkpt lat="47.28526" lon="4.90883">
        <ele>374</ele>
        <time>2021-04-20T08:59:31.000Z</time>
      </trkpt>
      <trkpt lat="47.28519" lon="4.90868">
        <ele>377</ele>
        <time>2021-04-20T08:59:41.000Z</time>
      </trkpt>
      <trkpt lat="47.28508" lon="4.90862">
        <ele>380</ele>
        <time>2021-04-20T08:59:50.000Z</time>
      </trkpt>
      <trkpt lat="47.28497" lon="4.90864">
        <ele>389</ele>
        <time>2021-04-20T09:00:02.000Z</time>
      </trkpt>
      <trkpt lat="47.28483" lon="4.90861">
        <ele>387</ele>
        <time>2021-04-20T09:00:16.000Z</time>
      </trkpt>
      <trkpt lat="47.28472" lon="4.90856">
        <ele>389</ele>
        <time>2021-04-20T09:00:24.000Z</time>
      </trkpt>
      <trkpt lat="47.28463" lon="4.90848">
        <ele>393</ele>
        <time>2021-04-20T09:00:56.000Z</time>
      </trkpt>
      <trkpt lat="47.28453" lon="4.90846">
        <ele>389</ele>
        <time>2021-04-20T09:01:02.000Z</time>
      </trkpt>
      <trkpt lat="47.28441" lon="4.90843">
        <ele>385</ele>
        <time>2021-04-20T09:01:08.000Z</time>
      </trkpt>
      <trkpt lat="47.28431" lon="4.90841">
        <ele>390</ele>
        <time>2021-04-20T09:01:14.000Z</time>
      </trkpt>
      <trkpt lat="47.28421" lon="4.90834">
        <ele>394</ele>
        <time>2021-04-20T09:01:22.000Z</time>
      </trkpt>
      <trkpt lat="47.2841" lon="4.90823">
        <ele>394</ele>
        <time>2021-04-20T09:01:30.000Z</time>
      </trkpt>
      <trkpt lat="47.28399" lon="4.90818">
        <ele>395</ele>
        <time>2021-04-20T09:01:40.000Z</time>
      </trkpt>
      <trkpt lat="47.28391" lon="4.90811">
        <ele>398</ele>
        <time>2021-04-20T09:01:55.000Z</time>
      </trkpt>
      <trkpt lat="47.28382" lon="4.90808">
        <ele>397</ele>
        <time>2021-04-20T09:02:06.000Z</time>
      </trkpt>
      <trkpt lat="47.28372" lon="4.90807">
        <ele>401</ele>
        <time>2021-04-20T09:02:12.000Z</time>
      </trkpt>
      <trkpt lat="47.28363" lon="4.90805">
        <ele>401</ele>
        <time>2021-04-20T09:02:18.000Z</time>
      </trkpt>
      <trkpt lat="47.28354" lon="4.908">
        <ele>402</ele>
        <time>2021-04-20T09:02:26.000Z</time>
      </trkpt>
      <trkpt lat="47.28346" lon="4.90791">
        <ele>402</ele>
        <time>2021-04-20T09:02:34.000Z</time>
      </trkpt>
      <trkpt lat="47.28339" lon="4.90778">
        <ele>402</ele>
        <time>2021-04-20T09:02:44.000Z</time>
      </trkpt>
      <trkpt lat="47.2833" lon="4.90773">
        <ele>405</ele>
        <time>2021-04-20T09:03:02.000Z</time>
      </trkpt>
      <trkpt lat="47.28318" lon="4.90765">
        <ele>410</ele>
        <time>2021-04-20T09:03:24.000Z</time>
      </trkpt>
      <trkpt lat="47.28307" lon="4.90756">
        <ele>410</ele>
        <time>2021-04-20T09:03:32.000Z</time>
      </trkpt>
      <trkpt lat="47.28295" lon="4.90745">
        <ele>408</ele>
        <time>2021-04-20T09:03:58.000Z</time>
      </trkpt>
      <trkpt lat="47.28285" lon="4.90739">
        <ele>406</ele>
        <time>2021-04-20T09:04:02.000Z</time>
      </trkpt>
      <trkpt lat="47.2827" lon="4.90731">
        <ele>408</ele>
        <time>2021-04-20T09:04:09.000Z</time>
      </trkpt>
      <trkpt lat="47.28263" lon="4.90721">
        <ele>403</ele>
        <time>2021-04-20T09:04:18.000Z</time>
      </trkpt>
      <trkpt lat="47.28258" lon="4.90708">
        <ele>402</ele>
        <time>2021-04-20T09:04:31.000Z</time>
      </trkpt>
      <trkpt lat="47.28254" lon="4.90695">
        <ele>402</ele>
        <time>2021-04-20T09:04:42.000Z</time>
      </trkpt>
      <trkpt lat="47.28241" lon="4.90688">
        <ele>401</ele>
        <time>2021-04-20T09:04:57.000Z</time>
      </trkpt>
      <trkpt lat="47.2823" lon="4.90681">
        <ele>402</ele>
        <time>2021-04-20T09:05:20.000Z</time>
      </trkpt>
      <trkpt lat="47.28223" lon="4.90673">
        <ele>405</ele>
        <time>2021-04-20T09:05:35.000Z</time>
      </trkpt>
      <trkpt lat="47.28218" lon="4.90662">
        <ele>409</ele>
        <time>2021-04-20T09:05:44.000Z</time>
      </trkpt>
      <trkpt lat="47.28208" lon="4.90655">
        <ele>406</ele>
        <time>2021-04-20T09:05:52.000Z</time>
      </trkpt>
      <trkpt lat="47.28201" lon="4.90645">
        <ele>411</ele>
        <time>2021-04-20T09:06:24.000Z</time>
      </trkpt>
      <trkpt lat="47.28192" lon="4.90641">
        <ele>408</ele>
        <time>2021-04-20T09:06:50.000Z</time>
      </trkpt>
      <trkpt lat="47.28183" lon="4.9064">
        <ele>410</ele>
        <time>2021-04-20T09:07:01.000Z</time>
      </trkpt>
      <trkpt lat="47.28173" lon="4.90634">
        <ele>412</ele>
        <time>2021-04-20T09:07:16.000Z</time>
      </trkpt>
      <trkpt lat="47.28164" lon="4.90627">
        <ele>416</ele>
        <time>2021-04-20T09:07:49.000Z</time>
      </trkpt>
      <trkpt lat="47.28154" lon="4.90617">
        <ele>412</ele>
        <time>2021-04-20T09:07:56.000Z</time>
      </trkpt>
      <trkpt lat="47.28152" lon="4.90602">
        <ele>406</ele>
        <time>2021-04-20T09:08:06.000Z</time>
      </trkpt>
      <trkpt lat="47.28142" lon="4.90599">
        <ele>402</ele>
        <time>2021-04-20T09:08:26.000Z</time>
      </trkpt>
      <trkpt lat="47.28133" lon="4.90598">
        <ele>401</ele>
        <time>2021-04-20T09:08:35.000Z</time>
      </trkpt>
      <trkpt lat="47.28123" lon="4.90591">
        <ele>402</ele>
        <time>2021-04-20T09:08:47.000Z</time>
      </trkpt>
      <trkpt lat="47.2812" lon="4.90578">
        <ele>398</ele>
        <time>2021-04-20T09:08:58.000Z</time>
      </trkpt>
      <trkpt lat="47.28112" lon="4.90568">
        <ele>403</ele>
        <time>2021-04-20T09:16:00.000Z</time>
      </trkpt>
      <trkpt lat="47.28093" lon="4.90567">
        <ele>397</ele>
        <time>2021-04-20T09:16:07.000Z</time>
      </trkpt>
      <trkpt lat="47.28084" lon="4.90567">
        <ele>398</ele>
        <time>2021-04-20T09:16:10.000Z</time>
      </trkpt>
      <trkpt lat="47.28075" lon="4.90566">
        <ele>394</ele>
        <time>2021-04-20T09:16:13.000Z</time>
      </trkpt>
      <trkpt lat="47.28066" lon="4.9056">
        <ele>394</ele>
        <time>2021-04-20T09:16:16.000Z</time>
      </trkpt>
      <trkpt lat="47.28056" lon="4.90556">
        <ele>399</ele>
        <time>2021-04-20T09:16:21.000Z</time>
      </trkpt>
      <trkpt lat="47.28045" lon="4.90554">
        <ele>399</ele>
        <time>2021-04-20T09:16:33.000Z</time>
      </trkpt>
      <trkpt lat="47.28042" lon="4.9054">
        <ele>399</ele>
        <time>2021-04-20T09:16:45.000Z</time>
      </trkpt>
      <trkpt lat="47.28031" lon="4.90538">
        <ele>402</ele>
        <time>2021-04-20T09:16:54.000Z</time>
      </trkpt>
      <trkpt lat="47.28018" lon="4.90536">
        <ele>399</ele>
        <time>2021-04-20T09:17:00.000Z</time>
      </trkpt>
      <trkpt lat="47.28009" lon="4.90528">
        <ele>395</ele>
        <time>2021-04-20T09:17:17.000Z</time>
      </trkpt>
      <trkpt lat="47.27996" lon="4.90531">
        <ele>391</ele>
        <time>2021-04-20T09:17:23.000Z</time>
      </trkpt>
      <trkpt lat="47.27987" lon="4.90532">
        <ele>391</ele>
        <time>2021-04-20T09:17:27.000Z</time>
      </trkpt>
      <trkpt lat="47.27976" lon="4.90526">
        <ele>391</ele>
        <time>2021-04-20T09:17:39.000Z</time>
      </trkpt>
      <trkpt lat="47.27966" lon="4.90525">
        <ele>389</ele>
        <time>2021-04-20T09:17:47.000Z</time>
      </trkpt>
      <trkpt lat="47.27953" lon="4.90521">
        <ele>388</ele>
        <time>2021-04-20T09:18:02.000Z</time>
      </trkpt>
      <trkpt lat="47.27942" lon="4.90523">
        <ele>387</ele>
        <time>2021-04-20T09:18:07.000Z</time>
      </trkpt>
      <trkpt lat="47.27932" lon="4.90523">
        <ele>372</ele>
        <time>2021-04-20T09:18:16.000Z</time>
      </trkpt>
      <trkpt lat="47.27922" lon="4.9052">
        <ele>368</ele>
        <time>2021-04-20T09:18:26.000Z</time>
      </trkpt>
      <trkpt lat="47.27912" lon="4.90518">
        <ele>364</ele>
        <time>2021-04-20T09:18:35.000Z</time>
      </trkpt>
      <trkpt lat="47.27899" lon="4.9051">
        <ele>367</ele>
        <time>2021-04-20T09:19:41.000Z</time>
      </trkpt>
      <trkpt lat="47.27888" lon="4.90507">
        <ele>371</ele>
        <time>2021-04-20T09:19:47.000Z</time>
      </trkpt>
      <trkpt lat="47.27875" lon="4.90505">
        <ele>374</ele>
        <time>2021-04-20T09:19:51.000Z</time>
      </trkpt>
      <trkpt lat="47.27849" lon="4.90497">
        <ele>374</ele>
        <time>2021-04-20T09:19:54.000Z</time>
      </trkpt>
      <trkpt lat="47.27833" lon="4.90482">
        <ele>375</ele>
        <time>2021-04-20T09:19:57.000Z</time>
      </trkpt>
      <trkpt lat="47.27843" lon="4.90473">
        <ele>478</ele>
        <time>2021-04-20T09:20:04.000Z</time>
      </trkpt>
      <trkpt lat="47.27852" lon="4.90472">
        <ele>431</ele>
        <time>2021-04-20T09:20:12.000Z</time>
      </trkpt>
      <trkpt lat="47.27858" lon="4.90461">
        <ele>395</ele>
        <time>2021-04-20T09:23:45.000Z</time>
      </trkpt>
      <trkpt lat="47.27851" lon="4.90452">
        <ele>395</ele>
        <time>2021-04-20T09:25:55.000Z</time>
      </trkpt>
      <trkpt lat="47.27858" lon="4.90441">
        <ele>395</ele>
        <time>2021-04-20T09:26:16.000Z</time>
      </trkpt>
      <trkpt lat="47.27866" lon="4.90423">
        <ele>411</ele>
        <time>2021-04-20T09:26:52.000Z</time>
      </trkpt>
      <trkpt lat="47.27866" lon="4.90409">
        <ele>414</ele>
        <time>2021-04-20T09:27:01.000Z</time>
      </trkpt>
      <trkpt lat="47.2787" lon="4.90398">
        <ele>416</ele>
        <time>2021-04-20T09:29:08.000Z</time>
      </trkpt>
      <trkpt lat="47.27876" lon="4.90387">
        <ele>428</ele>
        <time>2021-04-20T09:30:14.000Z</time>
      </trkpt>
      <trkpt lat="47.27885" lon="4.90381">
        <ele>434</ele>
        <time>2021-04-20T09:33:38.000Z</time>
      </trkpt>
      <trkpt lat="47.2786" lon="4.90354">
        <ele>434</ele>
        <time>2021-04-20T09:34:10.000Z</time>
      </trkpt>
      <trkpt lat="47.27875" lon="4.90356">
        <ele>441</ele>
        <time>2021-04-20T09:34:13.000Z</time>
      </trkpt>
      <trkpt lat="47.27885" lon="4.90365">
        <ele>444</ele>
        <time>2021-04-20T09:34:19.000Z</time>
      </trkpt>
      <trkpt lat="47.27885" lon="4.90342">
        <ele>448</ele>
        <time>2021-04-20T09:35:20.000Z</time>
      </trkpt>
      <trkpt lat="47.27887" lon="4.90326">
        <ele>445</ele>
        <time>2021-04-20T09:35:29.000Z</time>
      </trkpt>
      <trkpt lat="47.27891" lon="4.90313">
        <ele>442</ele>
        <time>2021-04-20T09:35:58.000Z</time>
      </trkpt>
      <trkpt lat="47.27886" lon="4.90298">
        <ele>446</ele>
        <time>2021-04-20T09:36:07.000Z</time>
      </trkpt>
      <trkpt lat="47.27884" lon="4.90285">
        <ele>445</ele>
        <time>2021-04-20T09:36:13.000Z</time>
      </trkpt>
      <trkpt lat="47.27881" lon="4.90269">
        <ele>448</ele>
        <time>2021-04-20T09:36:26.000Z</time>
      </trkpt>
      <trkpt lat="47.27871" lon="4.90267">
        <ele>447</ele>
        <time>2021-04-20T09:36:39.000Z</time>
      </trkpt>
      <trkpt lat="47.27864" lon="4.90257">
        <ele>446</ele>
        <time>2021-04-20T09:36:48.000Z</time>
      </trkpt>
      <trkpt lat="47.27861" lon="4.90239">
        <ele>448</ele>
        <time>2021-04-20T09:36:57.000Z</time>
      </trkpt>
      <trkpt lat="47.27854" lon="4.90229">
        <ele>446</ele>
        <time>2021-04-20T09:37:24.000Z</time>
      </trkpt>
      <trkpt lat="47.27848" lon="4.90217">
        <ele>450</ele>
        <time>2021-04-20T09:37:42.000Z</time>
      </trkpt>
      <trkpt lat="47.2784" lon="4.90209">
        <ele>452</ele>
        <time>2021-04-20T09:37:48.000Z</time>
      </trkpt>
      <trkpt lat="47.27828" lon="4.90202">
        <ele>454</ele>
        <time>2021-04-20T09:37:53.000Z</time>
      </trkpt>
      <trkpt lat="47.27819" lon="4.90201">
        <ele>458</ele>
        <time>2021-04-20T09:37:59.000Z</time>
      </trkpt>
      <trkpt lat="47.27808" lon="4.90205">
        <ele>462</ele>
        <time>2021-04-20T09:38:46.000Z</time>
      </trkpt>
      <trkpt lat="47.278" lon="4.90217">
        <ele>454</ele>
        <time>2021-04-20T09:38:52.000Z</time>
      </trkpt>
      <trkpt lat="47.27791" lon="4.90232">
        <ele>453</ele>
        <time>2021-04-20T09:39:01.000Z</time>
      </trkpt>
      <trkpt lat="47.27779" lon="4.9024">
        <ele>458</ele>
        <time>2021-04-20T09:39:07.000Z</time>
      </trkpt>
      <trkpt lat="47.27769" lon="4.90248">
        <ele>458</ele>
        <time>2021-04-20T09:39:12.000Z</time>
      </trkpt>
      <trkpt lat="47.27764" lon="4.9026">
        <ele>454</ele>
        <time>2021-04-20T09:39:21.000Z</time>
      </trkpt>
      <trkpt lat="47.27751" lon="4.90266">
        <ele>444</ele>
        <time>2021-04-20T09:39:30.000Z</time>
      </trkpt>
      <trkpt lat="47.27744" lon="4.90276">
        <ele>451</ele>
        <time>2021-04-20T09:39:54.000Z</time>
      </trkpt>
      <trkpt lat="47.27733" lon="4.90272">
        <ele>452</ele>
        <time>2021-04-20T09:40:31.000Z</time>
      </trkpt>
      <trkpt lat="47.27726" lon="4.90262">
        <ele>460</ele>
        <time>2021-04-20T09:40:40.000Z</time>
      </trkpt>
      <trkpt lat="47.27714" lon="4.90259">
        <ele>467</ele>
        <time>2021-04-20T09:40:50.000Z</time>
      </trkpt>
      <trkpt lat="47.27706" lon="4.9025">
        <ele>465</ele>
        <time>2021-04-20T09:41:23.000Z</time>
      </trkpt>
      <trkpt lat="47.27704" lon="4.90237">
        <ele>468</ele>
        <time>2021-04-20T09:41:29.000Z</time>
      </trkpt>
      <trkpt lat="47.27702" lon="4.90224">
        <ele>466</ele>
        <time>2021-04-20T09:41:34.000Z</time>
      </trkpt>
      <trkpt lat="47.27695" lon="4.90215">
        <ele>464</ele>
        <time>2021-04-20T09:41:48.000Z</time>
      </trkpt>
      <trkpt lat="47.27689" lon="4.90199">
        <ele>453</ele>
        <time>2021-04-20T09:42:04.000Z</time>
      </trkpt>
      <trkpt lat="47.27685" lon="4.90185">
        <ele>463</ele>
        <time>2021-04-20T09:42:13.000Z</time>
      </trkpt>
      <trkpt lat="47.27676" lon="4.90177">
        <ele>461</ele>
        <time>2021-04-20T09:42:21.000Z</time>
      </trkpt>
      <trkpt lat="47.27674" lon="4.90162">
        <ele>456</ele>
        <time>2021-04-20T09:42:35.000Z</time>
      </trkpt>
      <trkpt lat="47.27673" lon="4.90147">
        <ele>461</ele>
        <time>2021-04-20T09:42:59.000Z</time>
      </trkpt>
      <trkpt lat="47.27667" lon="4.90135">
        <ele>464</ele>
        <time>2021-04-20T09:43:05.000Z</time>
      </trkpt>
      <trkpt lat="47.2766" lon="4.90119">
        <ele>467</ele>
        <time>2021-04-20T09:43:11.000Z</time>
      </trkpt>
      <trkpt lat="47.27652" lon="4.90112">
        <ele>464</ele>
        <time>2021-04-20T09:43:23.000Z</time>
      </trkpt>
      <trkpt lat="47.27645" lon="4.90104">
        <ele>459</ele>
        <time>2021-04-20T09:43:32.000Z</time>
      </trkpt>
      <trkpt lat="47.27634" lon="4.90099">
        <ele>460</ele>
        <time>2021-04-20T09:43:44.000Z</time>
      </trkpt>
      <trkpt lat="47.27624" lon="4.90092">
        <ele>463</ele>
        <time>2021-04-20T09:43:53.000Z</time>
      </trkpt>
      <trkpt lat="47.27618" lon="4.90081">
        <ele>471</ele>
        <time>2021-04-20T09:44:05.000Z</time>
      </trkpt>
      <trkpt lat="47.2761" lon="4.90074">
        <ele>472</ele>
        <time>2021-04-20T09:44:14.000Z</time>
      </trkpt>
      <trkpt lat="47.27601" lon="4.9007">
        <ele>471</ele>
        <time>2021-04-20T09:44:23.000Z</time>
      </trkpt>
      <trkpt lat="47.27593" lon="4.90059">
        <ele>471</ele>
        <time>2021-04-20T09:44:34.000Z</time>
      </trkpt>
      <trkpt lat="47.27586" lon="4.90049">
        <ele>475</ele>
        <time>2021-04-20T09:44:46.000Z</time>
      </trkpt>
      <trkpt lat="47.27577" lon="4.90043">
        <ele>471</ele>
        <time>2021-04-20T09:44:52.000Z</time>
      </trkpt>
      <trkpt lat="47.2757" lon="4.90033">
        <ele>478</ele>
        <time>2021-04-20T09:45:10.000Z</time>
      </trkpt>
      <trkpt lat="47.27561" lon="4.90029">
        <ele>483</ele>
        <time>2021-04-20T09:45:29.000Z</time>
      </trkpt>
      <trkpt lat="47.27555" lon="4.90019">
        <ele>475</ele>
        <time>2021-04-20T09:46:05.000Z</time>
      </trkpt>
      <trkpt lat="47.2755" lon="4.90005">
        <ele>470</ele>
        <time>2021-04-20T09:46:20.000Z</time>
      </trkpt>
      <trkpt lat="47.27541" lon="4.89997">
        <ele>472</ele>
        <time>2021-04-20T09:46:32.000Z</time>
      </trkpt>
      <trkpt lat="47.27525" lon="4.89985">
        <ele>474</ele>
        <time>2021-04-20T09:46:38.000Z</time>
      </trkpt>
      <trkpt lat="47.27518" lon="4.89975">
        <ele>475</ele>
        <time>2021-04-20T09:46:42.000Z</time>
      </trkpt>
      <trkpt lat="47.27519" lon="4.89959">
        <ele>480</ele>
        <time>2021-04-20T09:46:53.000Z</time>
      </trkpt>
      <trkpt lat="47.27507" lon="4.89956">
        <ele>479</ele>
        <time>2021-04-20T09:47:03.000Z</time>
      </trkpt>
      <trkpt lat="47.2751" lon="4.8994">
        <ele>482</ele>
        <time>2021-04-20T09:48:32.000Z</time>
      </trkpt>
      <trkpt lat="47.27505" lon="4.89926">
        <ele>482</ele>
        <time>2021-04-20T09:48:38.000Z</time>
      </trkpt>
      <trkpt lat="47.27504" lon="4.89913">
        <ele>490</ele>
        <time>2021-04-20T09:48:54.000Z</time>
      </trkpt>
      <trkpt lat="47.27505" lon="4.89899">
        <ele>493</ele>
        <time>2021-04-20T09:49:10.000Z</time>
      </trkpt>
      <trkpt lat="47.27498" lon="4.89891">
        <ele>494</ele>
        <time>2021-04-20T09:49:19.000Z</time>
      </trkpt>
      <trkpt lat="47.27484" lon="4.89896">
        <ele>504</ele>
        <time>2021-04-20T09:50:34.000Z</time>
      </trkpt>
      <trkpt lat="47.27475" lon="4.899">
        <ele>508</ele>
        <time>2021-04-20T09:50:43.000Z</time>
      </trkpt>
      <trkpt lat="47.27466" lon="4.89901">
        <ele>507</ele>
        <time>2021-04-20T09:50:49.000Z</time>
      </trkpt>
      <trkpt lat="47.27451" lon="4.89902">
        <ele>503</ele>
        <time>2021-04-20T09:50:58.000Z</time>
      </trkpt>
      <trkpt lat="47.27443" lon="4.8991">
        <ele>520</ele>
        <time>2021-04-20T09:51:39.000Z</time>
      </trkpt>
      <trkpt lat="47.27439" lon="4.8989">
        <ele>506</ele>
        <time>2021-04-20T09:53:46.000Z</time>
      </trkpt>
      <trkpt lat="47.27447" lon="4.89872">
        <ele>503</ele>
        <time>2021-04-20T09:53:52.000Z</time>
      </trkpt>
      <trkpt lat="47.27449" lon="4.89853">
        <ele>501</ele>
        <time>2021-04-20T09:53:58.000Z</time>
      </trkpt>
      <trkpt lat="47.27457" lon="4.89842">
        <ele>501</ele>
        <time>2021-04-20T09:54:07.000Z</time>
      </trkpt>
      <trkpt lat="47.27458" lon="4.89827">
        <ele>502</ele>
        <time>2021-04-20T09:54:13.000Z</time>
      </trkpt>
      <trkpt lat="47.27468" lon="4.8981">
        <ele>505</ele>
        <time>2021-04-20T09:54:23.000Z</time>
      </trkpt>
      <trkpt lat="47.27478" lon="4.89801">
        <ele>510</ele>
        <time>2021-04-20T09:54:29.000Z</time>
      </trkpt>
      <trkpt lat="47.27487" lon="4.89799">
        <ele>515</ele>
        <time>2021-04-20T09:57:00.000Z</time>
      </trkpt>
      <trkpt lat="47.27494" lon="4.89791">
        <ele>521</ele>
        <time>2021-04-20T09:57:06.000Z</time>
      </trkpt>
      <trkpt lat="47.27503" lon="4.89784">
        <ele>540</ele>
        <time>2021-04-20T09:57:10.000Z</time>
      </trkpt>
      <trkpt lat="47.27509" lon="4.89773">
        <ele>530</ele>
        <time>2021-04-20T09:57:22.000Z</time>
      </trkpt>
      <trkpt lat="47.27518" lon="4.89768">
        <ele>530</ele>
        <time>2021-04-20T09:57:41.000Z</time>
      </trkpt>
      <trkpt lat="47.27533" lon="4.89764">
        <ele>538</ele>
        <time>2021-04-20T09:57:47.000Z</time>
      </trkpt>
      <trkpt lat="47.27542" lon="4.89761">
        <ele>542</ele>
        <time>2021-04-20T09:58:07.000Z</time>
      </trkpt>
      <trkpt lat="47.27548" lon="4.8975">
        <ele>536</ele>
        <time>2021-04-20T10:00:18.000Z</time>
      </trkpt>
      <trkpt lat="47.27556" lon="4.89742">
        <ele>539</ele>
        <time>2021-04-20T10:00:21.000Z</time>
      </trkpt>
      <trkpt lat="47.27564" lon="4.89736">
        <ele>544</ele>
        <time>2021-04-20T10:00:24.000Z</time>
      </trkpt>
      <trkpt lat="47.27577" lon="4.89728">
        <ele>547</ele>
        <time>2021-04-20T10:00:30.000Z</time>
      </trkpt>
      <trkpt lat="47.27587" lon="4.89725">
        <ele>543</ele>
        <time>2021-04-20T10:00:36.000Z</time>
      </trkpt>
      <trkpt lat="47.27601" lon="4.89714">
        <ele>535</ele>
        <time>2021-04-20T10:01:45.000Z</time>
      </trkpt>
      <trkpt lat="47.27611" lon="4.8971">
        <ele>534</ele>
        <time>2021-04-20T10:01:51.000Z</time>
      </trkpt>
      <trkpt lat="47.27622" lon="4.89706">
        <ele>535</ele>
        <time>2021-04-20T10:02:01.000Z</time>
      </trkpt>
      <trkpt lat="47.27631" lon="4.89702">
        <ele>537</ele>
        <time>2021-04-20T10:02:09.000Z</time>
      </trkpt>
      <trkpt lat="47.2764" lon="4.89698">
        <ele>540</ele>
        <time>2021-04-20T10:02:35.000Z</time>
      </trkpt>
      <trkpt lat="47.27651" lon="4.89695">
        <ele>535</ele>
        <time>2021-04-20T10:02:47.000Z</time>
      </trkpt>
      <trkpt lat="47.27662" lon="4.89695">
        <ele>534</ele>
        <time>2021-04-20T10:02:53.000Z</time>
      </trkpt>
      <trkpt lat="47.27672" lon="4.89694">
        <ele>534</ele>
        <time>2021-04-20T10:03:07.000Z</time>
      </trkpt>
      <trkpt lat="47.27686" lon="4.89691">
        <ele>538</ele>
        <time>2021-04-20T10:03:43.000Z</time>
      </trkpt>
      <trkpt lat="47.27705" lon="4.89687">
        <ele>535</ele>
        <time>2021-04-20T10:03:49.000Z</time>
      </trkpt>
      <trkpt lat="47.27725" lon="4.89681">
        <ele>535</ele>
        <time>2021-04-20T10:03:52.000Z</time>
      </trkpt>
      <trkpt lat="47.27738" lon="4.89677">
        <ele>542</ele>
        <time>2021-04-20T10:04:04.000Z</time>
      </trkpt>
      <trkpt lat="47.27747" lon="4.89668">
        <ele>540</ele>
        <time>2021-04-20T10:04:12.000Z</time>
      </trkpt>
      <trkpt lat="47.27753" lon="4.89658">
        <ele>548</ele>
        <time>2021-04-20T10:04:48.000Z</time>
      </trkpt>
      <trkpt lat="47.27763" lon="4.89647">
        <ele>548</ele>
        <time>2021-04-20T10:04:57.000Z</time>
      </trkpt>
      <trkpt lat="47.27772" lon="4.8964">
        <ele>548</ele>
        <time>2021-04-20T10:05:03.000Z</time>
      </trkpt>
      <trkpt lat="47.2778" lon="4.89634">
        <ele>544</ele>
        <time>2021-04-20T10:05:09.000Z</time>
      </trkpt>
      <trkpt lat="47.27792" lon="4.89623">
        <ele>542</ele>
        <time>2021-04-20T10:05:18.000Z</time>
      </trkpt>
      <trkpt lat="47.27799" lon="4.89614">
        <ele>544</ele>
        <time>2021-04-20T10:05:28.000Z</time>
      </trkpt>
      <trkpt lat="47.27809" lon="4.89602">
        <ele>538</ele>
        <time>2021-04-20T10:05:40.000Z</time>
      </trkpt>
      <trkpt lat="47.27814" lon="4.8959">
        <ele>540</ele>
        <time>2021-04-20T10:05:52.000Z</time>
      </trkpt>
      <trkpt lat="47.27824" lon="4.89581">
        <ele>535</ele>
        <time>2021-04-20T10:06:04.000Z</time>
      </trkpt>
      <trkpt lat="47.27831" lon="4.89573">
        <ele>535</ele>
        <time>2021-04-20T10:06:10.000Z</time>
      </trkpt>
      <trkpt lat="47.27839" lon="4.89558">
        <ele>539</ele>
        <time>2021-04-20T10:06:19.000Z</time>
      </trkpt>
      <trkpt lat="47.27849" lon="4.89549">
        <ele>534</ele>
        <time>2021-04-20T10:06:31.000Z</time>
      </trkpt>
      <trkpt lat="47.27857" lon="4.8954">
        <ele>534</ele>
        <time>2021-04-20T10:06:40.000Z</time>
      </trkpt>
      <trkpt lat="47.27865" lon="4.89531">
        <ele>534</ele>
        <time>2021-04-20T10:06:48.000Z</time>
      </trkpt>
      <trkpt lat="47.27872" lon="4.8952">
        <ele>540</ele>
        <time>2021-04-20T10:07:06.000Z</time>
      </trkpt>
      <trkpt lat="47.27881" lon="4.89521">
        <ele>535</ele>
        <time>2021-04-20T10:07:33.000Z</time>
      </trkpt>
      <trkpt lat="47.27893" lon="4.89519">
        <ele>531</ele>
        <time>2021-04-20T10:07:39.000Z</time>
      </trkpt>
      <trkpt lat="47.279" lon="4.89509">
        <ele>532</ele>
        <time>2021-04-20T10:07:45.000Z</time>
      </trkpt>
      <trkpt lat="47.27914" lon="4.89498">
        <ele>533</ele>
        <time>2021-04-20T10:07:54.000Z</time>
      </trkpt>
      <trkpt lat="47.27924" lon="4.89495">
        <ele>531</ele>
        <time>2021-04-20T10:08:00.000Z</time>
      </trkpt>
      <trkpt lat="47.27932" lon="4.89489">
        <ele>535</ele>
        <time>2021-04-20T10:08:20.000Z</time>
      </trkpt>
      <trkpt lat="47.27942" lon="4.89485">
        <ele>533</ele>
        <time>2021-04-20T10:08:41.000Z</time>
      </trkpt>
      <trkpt lat="47.2795" lon="4.89481">
        <ele>530</ele>
        <time>2021-04-20T10:08:45.000Z</time>
      </trkpt>
      <trkpt lat="47.27962" lon="4.89474">
        <ele>528</ele>
        <time>2021-04-20T10:08:49.000Z</time>
      </trkpt>
      <trkpt lat="47.27975" lon="4.89474">
        <ele>531</ele>
        <time>2021-04-20T10:08:54.000Z</time>
      </trkpt>
      <trkpt lat="47.27984" lon="4.89472">
        <ele>532</ele>
        <time>2021-04-20T10:08:58.000Z</time>
      </trkpt>
      <trkpt lat="47.27998" lon="4.89462">
        <ele>530</ele>
        <time>2021-04-20T10:09:05.000Z</time>
      </trkpt>
      <trkpt lat="47.2801" lon="4.89457">
        <ele>527</ele>
        <time>2021-04-20T10:09:13.000Z</time>
      </trkpt>
      <trkpt lat="47.28018" lon="4.89447">
        <ele>536</ele>
        <time>2021-04-20T10:09:24.000Z</time>
      </trkpt>
      <trkpt lat="47.28029" lon="4.89435">
        <ele>540</ele>
        <time>2021-04-20T10:09:34.000Z</time>
      </trkpt>
      <trkpt lat="47.28038" lon="4.89431">
        <ele>545</ele>
        <time>2021-04-20T10:09:43.000Z</time>
      </trkpt>
      <trkpt lat="47.28046" lon="4.89423">
        <ele>548</ele>
        <time>2021-04-20T10:09:58.000Z</time>
      </trkpt>
      <trkpt lat="47.28057" lon="4.89416">
        <ele>544</ele>
        <time>2021-04-20T10:10:21.000Z</time>
      </trkpt>
      <trkpt lat="47.28068" lon="4.89403">
        <ele>546</ele>
        <time>2021-04-20T10:10:29.000Z</time>
      </trkpt>
      <trkpt lat="47.28073" lon="4.89387">
        <ele>550</ele>
        <time>2021-04-20T10:10:35.000Z</time>
      </trkpt>
      <trkpt lat="47.28077" lon="4.89372">
        <ele>555</ele>
        <time>2021-04-20T10:10:40.000Z</time>
      </trkpt>
      <trkpt lat="47.28083" lon="4.89362">
        <ele>555</ele>
        <time>2021-04-20T10:10:45.000Z</time>
      </trkpt>
      <trkpt lat="47.28089" lon="4.89345">
        <ele>541</ele>
        <time>2021-04-20T10:10:51.000Z</time>
      </trkpt>
      <trkpt lat="47.28098" lon="4.89342">
        <ele>540</ele>
        <time>2021-04-20T10:10:56.000Z</time>
      </trkpt>
      <trkpt lat="47.28112" lon="4.89332">
        <ele>542</ele>
        <time>2021-04-20T10:11:03.000Z</time>
      </trkpt>
      <trkpt lat="47.28124" lon="4.89331">
        <ele>543</ele>
        <time>2021-04-20T10:11:08.000Z</time>
      </trkpt>
      <trkpt lat="47.2813" lon="4.89317">
        <ele>550</ele>
        <time>2021-04-20T10:11:16.000Z</time>
      </trkpt>
      <trkpt lat="47.28136" lon="4.89303">
        <ele>561</ele>
        <time>2021-04-20T10:11:54.000Z</time>
      </trkpt>
      <trkpt lat="47.28139" lon="4.89289">
        <ele>555</ele>
        <time>2021-04-20T10:13:45.000Z</time>
      </trkpt>
      <trkpt lat="47.28131" lon="4.89276">
        <ele>552</ele>
        <time>2021-04-20T10:13:53.000Z</time>
      </trkpt>
      <trkpt lat="47.28127" lon="4.89259">
        <ele>550</ele>
        <time>2021-04-20T10:14:00.000Z</time>
      </trkpt>
      <trkpt lat="47.2812" lon="4.89248">
        <ele>549</ele>
        <time>2021-04-20T10:14:06.000Z</time>
      </trkpt>
      <trkpt lat="47.28114" lon="4.89234">
        <ele>546</ele>
        <time>2021-04-20T10:14:11.000Z</time>
      </trkpt>
      <trkpt lat="47.28106" lon="4.89224">
        <ele>548</ele>
        <time>2021-04-20T10:14:17.000Z</time>
      </trkpt>
      <trkpt lat="47.28101" lon="4.89213">
        <ele>550</ele>
        <time>2021-04-20T10:14:23.000Z</time>
      </trkpt>
      <trkpt lat="47.28096" lon="4.89202">
        <ele>554</ele>
        <time>2021-04-20T10:14:29.000Z</time>
      </trkpt>
      <trkpt lat="47.2809" lon="4.89189">
        <ele>555</ele>
        <time>2021-04-20T10:14:37.000Z</time>
      </trkpt>
      <trkpt lat="47.28089" lon="4.89172">
        <ele>558</ele>
        <time>2021-04-20T10:14:46.000Z</time>
      </trkpt>
      <trkpt lat="47.28081" lon="4.89157">
        <ele>555</ele>
        <time>2021-04-20T10:14:54.000Z</time>
      </trkpt>
      <trkpt lat="47.2808" lon="4.89143">
        <ele>552</ele>
        <time>2021-04-20T10:15:02.000Z</time>
      </trkpt>
      <trkpt lat="47.28076" lon="4.89128">
        <ele>556</ele>
        <time>2021-04-20T10:15:29.000Z</time>
      </trkpt>
      <trkpt lat="47.28072" lon="4.89115">
        <ele>552</ele>
        <time>2021-04-20T10:15:34.000Z</time>
      </trkpt>
      <trkpt lat="47.28066" lon="4.89099">
        <ele>553</ele>
        <time>2021-04-20T10:15:40.000Z</time>
      </trkpt>
      <trkpt lat="47.28065" lon="4.89085">
        <ele>554</ele>
        <time>2021-04-20T10:15:46.000Z</time>
      </trkpt>
      <trkpt lat="47.28061" lon="4.89069">
        <ele>554</ele>
        <time>2021-04-20T10:15:54.000Z</time>
      </trkpt>
      <trkpt lat="47.28057" lon="4.89048">
        <ele>554</ele>
        <time>2021-04-20T10:16:00.000Z</time>
      </trkpt>
      <trkpt lat="47.28058" lon="4.89034">
        <ele>551</ele>
        <time>2021-04-20T10:16:10.000Z</time>
      </trkpt>
      <trkpt lat="47.28059" lon="4.89017">
        <ele>555</ele>
        <time>2021-04-20T10:16:21.000Z</time>
      </trkpt>
      <trkpt lat="47.28063" lon="4.89005">
        <ele>559</ele>
        <time>2021-04-20T10:16:30.000Z</time>
      </trkpt>
      <trkpt lat="47.2806" lon="4.88991">
        <ele>559</ele>
        <time>2021-04-20T10:16:36.000Z</time>
      </trkpt>
      <trkpt lat="47.28058" lon="4.88978">
        <ele>556</ele>
        <time>2021-04-20T10:16:42.000Z</time>
      </trkpt>
      <trkpt lat="47.28056" lon="4.88964">
        <ele>551</ele>
        <time>2021-04-20T10:16:50.000Z</time>
      </trkpt>
      <trkpt lat="47.28062" lon="4.88948">
        <ele>548</ele>
        <time>2021-04-20T10:17:04.000Z</time>
      </trkpt>
      <trkpt lat="47.28061" lon="4.88933">
        <ele>545</ele>
        <time>2021-04-20T10:17:12.000Z</time>
      </trkpt>
      <trkpt lat="47.2806" lon="4.88911">
        <ele>552</ele>
        <time>2021-04-20T10:17:19.000Z</time>
      </trkpt>
      <trkpt lat="47.28055" lon="4.88898">
        <ele>552</ele>
        <time>2021-04-20T10:17:24.000Z</time>
      </trkpt>
      <trkpt lat="47.28062" lon="4.88886">
        <ele>549</ele>
        <time>2021-04-20T10:17:32.000Z</time>
      </trkpt>
      <trkpt lat="47.28054" lon="4.88862">
        <ele>547</ele>
        <time>2021-04-20T10:17:40.000Z</time>
      </trkpt>
      <trkpt lat="47.28057" lon="4.88848">
        <ele>548</ele>
        <time>2021-04-20T10:17:50.000Z</time>
      </trkpt>
      <trkpt lat="47.28064" lon="4.88836">
        <ele>551</ele>
        <time>2021-04-20T10:17:58.000Z</time>
      </trkpt>
      <trkpt lat="47.28052" lon="4.88827">
        <ele>554</ele>
        <time>2021-04-20T10:18:07.000Z</time>
      </trkpt>
      <trkpt lat="47.28046" lon="4.88814">
        <ele>554</ele>
        <time>2021-04-20T10:18:18.000Z</time>
      </trkpt>
      <trkpt lat="47.28047" lon="4.88798">
        <ele>559</ele>
        <time>2021-04-20T10:18:24.000Z</time>
      </trkpt>
      <trkpt lat="47.28044" lon="4.88785">
        <ele>564</ele>
        <time>2021-04-20T10:18:30.000Z</time>
      </trkpt>
      <trkpt lat="47.28041" lon="4.88764">
        <ele>563</ele>
        <time>2021-04-20T10:18:41.000Z</time>
      </trkpt>
      <trkpt lat="47.28037" lon="4.88751">
        <ele>560</ele>
        <time>2021-04-20T10:18:55.000Z</time>
      </trkpt>
      <trkpt lat="47.28032" lon="4.88737">
        <ele>557</ele>
        <time>2021-04-20T10:19:07.000Z</time>
      </trkpt>
      <trkpt lat="47.28022" lon="4.88735">
        <ele>558</ele>
        <time>2021-04-20T10:19:17.000Z</time>
      </trkpt>
      <trkpt lat="47.28013" lon="4.88738">
        <ele>555</ele>
        <time>2021-04-20T10:20:02.000Z</time>
      </trkpt>
      <trkpt lat="47.28004" lon="4.88752">
        <ele>554</ele>
        <time>2021-04-20T10:20:08.000Z</time>
      </trkpt>
      <trkpt lat="47.27997" lon="4.88763">
        <ele>553</ele>
        <time>2021-04-20T10:20:14.000Z</time>
      </trkpt>
      <trkpt lat="47.27996" lon="4.88777">
        <ele>554</ele>
        <time>2021-04-20T10:20:20.000Z</time>
      </trkpt>
      <trkpt lat="47.27998" lon="4.8879">
        <ele>557</ele>
        <time>2021-04-20T10:20:26.000Z</time>
      </trkpt>
      <trkpt lat="47.27994" lon="4.88812">
        <ele>554</ele>
        <time>2021-04-20T10:20:35.000Z</time>
      </trkpt>
      <trkpt lat="47.27993" lon="4.88826">
        <ele>555</ele>
        <time>2021-04-20T10:20:44.000Z</time>
      </trkpt>
      <trkpt lat="47.27988" lon="4.88843">
        <ele>553</ele>
        <time>2021-04-20T10:20:56.000Z</time>
      </trkpt>
      <trkpt lat="47.27987" lon="4.88859">
        <ele>539</ele>
        <time>2021-04-20T10:21:17.000Z</time>
      </trkpt>
      <trkpt lat="47.27985" lon="4.88873">
        <ele>536</ele>
        <time>2021-04-20T10:21:32.000Z</time>
      </trkpt>
      <trkpt lat="47.27966" lon="4.88933">
        <ele>527</ele>
        <time>2021-04-20T10:22:08.000Z</time>
      </trkpt>
      <trkpt lat="47.27964" lon="4.88947">
        <ele>550</ele>
        <time>2021-04-20T10:22:25.000Z</time>
      </trkpt>
      <trkpt lat="47.27958" lon="4.88959">
        <ele>539</ele>
        <time>2021-04-20T10:22:34.000Z</time>
      </trkpt>
      <trkpt lat="47.27953" lon="4.88971">
        <ele>532</ele>
        <time>2021-04-20T10:22:38.000Z</time>
      </trkpt>
      <trkpt lat="47.27952" lon="4.88984">
        <ele>528</ele>
        <time>2021-04-20T10:22:46.000Z</time>
      </trkpt>
      <trkpt lat="47.27945" lon="4.88994">
        <ele>529</ele>
        <time>2021-04-20T10:23:08.000Z</time>
      </trkpt>
      <trkpt lat="47.27946" lon="4.89008">
        <ele>524</ele>
        <time>2021-04-20T10:23:30.000Z</time>
      </trkpt>
      <trkpt lat="47.27936" lon="4.89014">
        <ele>524</ele>
        <time>2021-04-20T10:23:33.000Z</time>
      </trkpt>
      <trkpt lat="47.27938" lon="4.89029">
        <ele>521</ele>
        <time>2021-04-20T10:23:41.000Z</time>
      </trkpt>
      <trkpt lat="47.27947" lon="4.89031">
        <ele>514</ele>
        <time>2021-04-20T10:23:55.000Z</time>
      </trkpt>
      <trkpt lat="47.27949" lon="4.89046">
        <ele>518</ele>
        <time>2021-04-20T10:24:18.000Z</time>
      </trkpt>
      <trkpt lat="47.27942" lon="4.89058">
        <ele>517</ele>
        <time>2021-04-20T10:24:29.000Z</time>
      </trkpt>
      <trkpt lat="47.27933" lon="4.89075">
        <ele>518</ele>
        <time>2021-04-20T10:24:34.000Z</time>
      </trkpt>
      <trkpt lat="47.27931" lon="4.89088">
        <ele>516</ele>
        <time>2021-04-20T10:24:40.000Z</time>
      </trkpt>
      <trkpt lat="47.27924" lon="4.891">
        <ele>511</ele>
        <time>2021-04-20T10:24:54.000Z</time>
      </trkpt>
      <trkpt lat="47.27923" lon="4.89118">
        <ele>482</ele>
        <time>2021-04-20T10:25:20.000Z</time>
      </trkpt>
      <trkpt lat="47.27923" lon="4.89138">
        <ele>477</ele>
        <time>2021-04-20T10:25:37.000Z</time>
      </trkpt>
      <trkpt lat="47.2793" lon="4.89147">
        <ele>471</ele>
        <time>2021-04-20T10:26:00.000Z</time>
      </trkpt>
      <trkpt lat="47.27941" lon="4.89145">
        <ele>474</ele>
        <time>2021-04-20T10:26:09.000Z</time>
      </trkpt>
      <trkpt lat="47.27947" lon="4.89155">
        <ele>475</ele>
        <time>2021-04-20T10:26:29.000Z</time>
      </trkpt>
      <trkpt lat="47.27937" lon="4.89153">
        <ele>480</ele>
        <time>2021-04-20T10:26:37.000Z</time>
      </trkpt>
      <trkpt lat="47.27925" lon="4.89156">
        <ele>480</ele>
        <time>2021-04-20T10:26:45.000Z</time>
      </trkpt>
      <trkpt lat="47.27915" lon="4.8916">
        <ele>486</ele>
        <time>2021-04-20T10:26:58.000Z</time>
      </trkpt>
      <trkpt lat="47.27904" lon="4.89166">
        <ele>488</ele>
        <time>2021-04-20T10:27:07.000Z</time>
      </trkpt>
      <trkpt lat="47.27894" lon="4.89174">
        <ele>490</ele>
        <time>2021-04-20T10:27:16.000Z</time>
      </trkpt>
      <trkpt lat="47.27885" lon="4.89186">
        <ele>487</ele>
        <time>2021-04-20T10:27:26.000Z</time>
      </trkpt>
      <trkpt lat="47.27874" lon="4.89193">
        <ele>489</ele>
        <time>2021-04-20T10:27:35.000Z</time>
      </trkpt>
      <trkpt lat="47.27864" lon="4.89194">
        <ele>493</ele>
        <time>2021-04-20T10:27:44.000Z</time>
      </trkpt>
      <trkpt lat="47.27852" lon="4.89207">
        <ele>495</ele>
        <time>2021-04-20T10:27:53.000Z</time>
      </trkpt>
      <trkpt lat="47.27842" lon="4.89205">
        <ele>499</ele>
        <time>2021-04-20T10:28:08.000Z</time>
      </trkpt>
      <trkpt lat="47.27833" lon="4.89211">
        <ele>499</ele>
        <time>2021-04-20T10:28:27.000Z</time>
      </trkpt>
      <trkpt lat="47.27824" lon="4.89234">
        <ele>499</ele>
        <time>2021-04-20T10:28:33.000Z</time>
      </trkpt>
      <trkpt lat="47.27817" lon="4.89246">
        <ele>499</ele>
        <time>2021-04-20T10:28:39.000Z</time>
      </trkpt>
      <trkpt lat="47.27813" lon="4.89232">
        <ele>486</ele>
        <time>2021-04-20T10:28:51.000Z</time>
      </trkpt>
      <trkpt lat="47.27819" lon="4.89221">
        <ele>482</ele>
        <time>2021-04-20T10:29:00.000Z</time>
      </trkpt>
      <trkpt lat="47.27781" lon="4.89181">
        <ele>447</ele>
        <time>2021-04-20T11:49:36.000Z</time>
      </trkpt>
      <trkpt lat="47.27536" lon="4.8963">
        <ele>547</ele>
        <time>2021-04-20T12:12:47.369Z</time>
      </trkpt>
      <trkpt lat="47.27562" lon="4.89638">
        <ele>581</ele>
        <time>2021-04-20T12:12:48.357Z</time>
      </trkpt>
      <trkpt lat="47.27571" lon="4.89644">
        <ele>582</ele>
        <time>2021-04-20T12:12:49.357Z</time>
      </trkpt>
      <trkpt lat="47.27587" lon="4.89655">
        <ele>614</ele>
        <time>2021-04-20T12:12:50.000Z</time>
      </trkpt>
      <trkpt lat="47.27578" lon="4.89648">
        <ele>602</ele>
        <time>2021-04-20T12:12:53.000Z</time>
      </trkpt>
      <trkpt lat="47.27568" lon="4.89647">
        <ele>589</ele>
        <time>2021-04-20T12:12:58.000Z</time>
      </trkpt>
      <trkpt lat="47.2756" lon="4.89643">
        <ele>578</ele>
        <time>2021-04-20T12:13:16.000Z</time>
      </trkpt>
      <trkpt lat="47.27549" lon="4.89644">
        <ele>565</ele>
        <time>2021-04-20T12:17:27.000Z</time>
      </trkpt>
      <trkpt lat="47.2754" lon="4.89655">
        <ele>559</ele>
        <time>2021-04-20T12:17:36.000Z</time>
      </trkpt>
      <trkpt lat="47.27527" lon="4.89663">
        <ele>556</ele>
        <time>2021-04-20T12:17:45.000Z</time>
      </trkpt>
      <trkpt lat="47.27518" lon="4.89669">
        <ele>555</ele>
        <time>2021-04-20T12:17:51.000Z</time>
      </trkpt>
      <trkpt lat="47.27508" lon="4.89673">
        <ele>553</ele>
        <time>2021-04-20T12:18:00.000Z</time>
      </trkpt>
      <trkpt lat="47.275" lon="4.89681">
        <ele>556</ele>
        <time>2021-04-20T12:18:09.000Z</time>
      </trkpt>
      <trkpt lat="47.27489" lon="4.89683">
        <ele>560</ele>
        <time>2021-04-20T12:18:37.000Z</time>
      </trkpt>
      <trkpt lat="47.27474" lon="4.89681">
        <ele>560</ele>
        <time>2021-04-20T12:18:43.000Z</time>
      </trkpt>
      <trkpt lat="47.27461" lon="4.8969">
        <ele>560</ele>
        <time>2021-04-20T12:18:49.000Z</time>
      </trkpt>
      <trkpt lat="47.27449" lon="4.89698">
        <ele>561</ele>
        <time>2021-04-20T12:18:55.000Z</time>
      </trkpt>
      <trkpt lat="47.27438" lon="4.89706">
        <ele>563</ele>
        <time>2021-04-20T12:19:01.000Z</time>
      </trkpt>
      <trkpt lat="47.27429" lon="4.89711">
        <ele>566</ele>
        <time>2021-04-20T12:19:14.000Z</time>
      </trkpt>
      <trkpt lat="47.27424" lon="4.89723">
        <ele>568</ele>
        <time>2021-04-20T12:19:23.000Z</time>
      </trkpt>
      <trkpt lat="47.27415" lon="4.89724">
        <ele>570</ele>
        <time>2021-04-20T12:19:32.000Z</time>
      </trkpt>
      <trkpt lat="47.27407" lon="4.8973">
        <ele>571</ele>
        <time>2021-04-20T12:19:44.000Z</time>
      </trkpt>
      <trkpt lat="47.27398" lon="4.89739">
        <ele>571</ele>
        <time>2021-04-20T12:19:56.000Z</time>
      </trkpt>
      <trkpt lat="47.27389" lon="4.89747">
        <ele>577</ele>
        <time>2021-04-20T12:20:02.000Z</time>
      </trkpt>
      <trkpt lat="47.27377" lon="4.89752">
        <ele>581</ele>
        <time>2021-04-20T12:20:11.000Z</time>
      </trkpt>
      <trkpt lat="47.27367" lon="4.89763">
        <ele>581</ele>
        <time>2021-04-20T12:20:25.000Z</time>
      </trkpt>
      <trkpt lat="47.2736" lon="4.89782">
        <ele>580</ele>
        <time>2021-04-20T12:20:31.000Z</time>
      </trkpt>
      <trkpt lat="47.27349" lon="4.89787">
        <ele>585</ele>
        <time>2021-04-20T12:20:48.000Z</time>
      </trkpt>
      <trkpt lat="47.27342" lon="4.89793">
        <ele>583</ele>
        <time>2021-04-20T12:21:09.000Z</time>
      </trkpt>
      <trkpt lat="47.2733" lon="4.8981">
        <ele>579</ele>
        <time>2021-04-20T12:21:18.000Z</time>
      </trkpt>
      <trkpt lat="47.27322" lon="4.8982">
        <ele>582</ele>
        <time>2021-04-20T12:21:24.000Z</time>
      </trkpt>
      <trkpt lat="47.27316" lon="4.89829">
        <ele>585</ele>
        <time>2021-04-20T12:21:33.000Z</time>
      </trkpt>
      <trkpt lat="47.27311" lon="4.89847">
        <ele>584</ele>
        <time>2021-04-20T12:21:42.000Z</time>
      </trkpt>
      <trkpt lat="47.27301" lon="4.89852">
        <ele>583</ele>
        <time>2021-04-20T12:21:54.000Z</time>
      </trkpt>
      <trkpt lat="47.27295" lon="4.89866">
        <ele>587</ele>
        <time>2021-04-20T12:22:04.000Z</time>
      </trkpt>
      <trkpt lat="47.27286" lon="4.89874">
        <ele>588</ele>
        <time>2021-04-20T12:22:13.000Z</time>
      </trkpt>
      <trkpt lat="47.27279" lon="4.89889">
        <ele>589</ele>
        <time>2021-04-20T12:22:21.000Z</time>
      </trkpt>
      <trkpt lat="47.27272" lon="4.89898">
        <ele>590</ele>
        <time>2021-04-20T12:22:30.000Z</time>
      </trkpt>
      <trkpt lat="47.27265" lon="4.89912">
        <ele>591</ele>
        <time>2021-04-20T12:22:42.000Z</time>
      </trkpt>
      <trkpt lat="47.27253" lon="4.89921">
        <ele>588</ele>
        <time>2021-04-20T12:22:54.000Z</time>
      </trkpt>
      <trkpt lat="47.27239" lon="4.89916">
        <ele>592</ele>
        <time>2021-04-20T12:23:03.000Z</time>
      </trkpt>
      <trkpt lat="47.27242" lon="4.89932">
        <ele>593</ele>
        <time>2021-04-20T12:23:15.000Z</time>
      </trkpt>
      <trkpt lat="47.27232" lon="4.89941">
        <ele>594</ele>
        <time>2021-04-20T12:23:30.000Z</time>
      </trkpt>
      <trkpt lat="47.27224" lon="4.89947">
        <ele>595</ele>
        <time>2021-04-20T12:23:39.000Z</time>
      </trkpt>
      <trkpt lat="47.27216" lon="4.89962">
        <ele>592</ele>
        <time>2021-04-20T12:23:54.000Z</time>
      </trkpt>
      <trkpt lat="47.27208" lon="4.89971">
        <ele>596</ele>
        <time>2021-04-20T12:24:01.000Z</time>
      </trkpt>
      <trkpt lat="47.27198" lon="4.8998">
        <ele>599</ele>
        <time>2021-04-20T12:24:09.000Z</time>
      </trkpt>
      <trkpt lat="47.27187" lon="4.89986">
        <ele>598</ele>
        <time>2021-04-20T12:24:25.000Z</time>
      </trkpt>
      <trkpt lat="47.27177" lon="4.89989">
        <ele>603</ele>
        <time>2021-04-20T12:24:33.000Z</time>
      </trkpt>
      <trkpt lat="47.27168" lon="4.89998">
        <ele>607</ele>
        <time>2021-04-20T12:24:57.000Z</time>
      </trkpt>
      <trkpt lat="47.2716" lon="4.90008">
        <ele>606</ele>
        <time>2021-04-20T12:25:03.000Z</time>
      </trkpt>
      <trkpt lat="47.27147" lon="4.90024">
        <ele>606</ele>
        <time>2021-04-20T12:25:09.000Z</time>
      </trkpt>
      <trkpt lat="47.27133" lon="4.90026">
        <ele>608</ele>
        <time>2021-04-20T12:25:15.000Z</time>
      </trkpt>
      <trkpt lat="47.27124" lon="4.90034">
        <ele>608</ele>
        <time>2021-04-20T12:25:24.000Z</time>
      </trkpt>
      <trkpt lat="47.27115" lon="4.90033">
        <ele>606</ele>
        <time>2021-04-20T12:25:36.000Z</time>
      </trkpt>
      <trkpt lat="47.27111" lon="4.90045">
        <ele>609</ele>
        <time>2021-04-20T12:26:15.000Z</time>
      </trkpt>
      <trkpt lat="47.271" lon="4.9005">
        <ele>612</ele>
        <time>2021-04-20T12:26:22.000Z</time>
      </trkpt>
      <trkpt lat="47.2709" lon="4.9005">
        <ele>608</ele>
        <time>2021-04-20T12:26:31.000Z</time>
      </trkpt>
      <trkpt lat="47.27081" lon="4.90054">
        <ele>606</ele>
        <time>2021-04-20T12:26:37.000Z</time>
      </trkpt>
      <trkpt lat="47.27069" lon="4.90051">
        <ele>609</ele>
        <time>2021-04-20T12:26:46.000Z</time>
      </trkpt>
      <trkpt lat="47.2706" lon="4.90059">
        <ele>605</ele>
        <time>2021-04-20T12:26:54.000Z</time>
      </trkpt>
      <trkpt lat="47.2705" lon="4.90058">
        <ele>606</ele>
        <time>2021-04-20T12:27:03.000Z</time>
      </trkpt>
      <trkpt lat="47.2704" lon="4.90058">
        <ele>605</ele>
        <time>2021-04-20T12:27:15.000Z</time>
      </trkpt>
      <trkpt lat="47.27031" lon="4.90062">
        <ele>609</ele>
        <time>2021-04-20T12:27:24.000Z</time>
      </trkpt>
      <trkpt lat="47.27023" lon="4.90054">
        <ele>605</ele>
        <time>2021-04-20T12:27:33.000Z</time>
      </trkpt>
      <trkpt lat="47.27012" lon="4.9006">
        <ele>604</ele>
        <time>2021-04-20T12:27:41.000Z</time>
      </trkpt>
      <trkpt lat="47.27" lon="4.90061">
        <ele>593</ele>
        <time>2021-04-20T12:27:53.000Z</time>
      </trkpt>
      <trkpt lat="47.26989" lon="4.90058">
        <ele>598</ele>
        <time>2021-04-20T12:27:59.000Z</time>
      </trkpt>
      <trkpt lat="47.26975" lon="4.90059">
        <ele>596</ele>
        <time>2021-04-20T12:28:08.000Z</time>
      </trkpt>
      <trkpt lat="47.26965" lon="4.90056">
        <ele>600</ele>
        <time>2021-04-20T12:28:17.000Z</time>
      </trkpt>
      <trkpt lat="47.26954" lon="4.90057">
        <ele>603</ele>
        <time>2021-04-20T12:28:27.000Z</time>
      </trkpt>
      <trkpt lat="47.26944" lon="4.9006">
        <ele>608</ele>
        <time>2021-04-20T12:28:36.000Z</time>
      </trkpt>
      <trkpt lat="47.26933" lon="4.90058">
        <ele>607</ele>
        <time>2021-04-20T12:28:51.000Z</time>
      </trkpt>
      <trkpt lat="47.26924" lon="4.90053">
        <ele>603</ele>
        <time>2021-04-20T12:29:02.000Z</time>
      </trkpt>
      <trkpt lat="47.26915" lon="4.9005">
        <ele>606</ele>
        <time>2021-04-20T12:29:17.000Z</time>
      </trkpt>
      <trkpt lat="47.26906" lon="4.90047">
        <ele>606</ele>
        <time>2021-04-20T12:29:23.000Z</time>
      </trkpt>
      <trkpt lat="47.26897" lon="4.90048">
        <ele>604</ele>
        <time>2021-04-20T12:29:29.000Z</time>
      </trkpt>
      <trkpt lat="47.26888" lon="4.90044">
        <ele>607</ele>
        <time>2021-04-20T12:29:38.000Z</time>
      </trkpt>
      <trkpt lat="47.26878" lon="4.90037">
        <ele>607</ele>
        <time>2021-04-20T12:29:50.000Z</time>
      </trkpt>
      <trkpt lat="47.26868" lon="4.90033">
        <ele>608</ele>
        <time>2021-04-20T12:29:53.000Z</time>
      </trkpt>
      <trkpt lat="47.2686" lon="4.90028">
        <ele>605</ele>
        <time>2021-04-20T12:29:59.000Z</time>
      </trkpt>
      <trkpt lat="47.2685" lon="4.9002">
        <ele>606</ele>
        <time>2021-04-20T12:30:11.000Z</time>
      </trkpt>
      <trkpt lat="47.26837" lon="4.90013">
        <ele>609</ele>
        <time>2021-04-20T12:30:16.000Z</time>
      </trkpt>
      <trkpt lat="47.26826" lon="4.9001">
        <ele>607</ele>
        <time>2021-04-20T12:30:28.000Z</time>
      </trkpt>
      <trkpt lat="47.26815" lon="4.90006">
        <ele>608</ele>
        <time>2021-04-20T12:30:41.000Z</time>
      </trkpt>
      <trkpt lat="47.26806" lon="4.9">
        <ele>608</ele>
        <time>2021-04-20T12:30:47.000Z</time>
      </trkpt>
      <trkpt lat="47.26797" lon="4.89996">
        <ele>608</ele>
        <time>2021-04-20T12:30:55.000Z</time>
      </trkpt>
      <trkpt lat="47.26786" lon="4.89984">
        <ele>604</ele>
        <time>2021-04-20T12:32:18.000Z</time>
      </trkpt>
      <trkpt lat="47.26772" lon="4.89985">
        <ele>601</ele>
        <time>2021-04-20T12:32:30.000Z</time>
      </trkpt>
      <trkpt lat="47.26762" lon="4.89986">
        <ele>603</ele>
        <time>2021-04-20T12:32:36.000Z</time>
      </trkpt>
      <trkpt lat="47.26753" lon="4.89979">
        <ele>598</ele>
        <time>2021-04-20T12:32:45.000Z</time>
      </trkpt>
      <trkpt lat="47.26742" lon="4.89977">
        <ele>602</ele>
        <time>2021-04-20T12:32:54.000Z</time>
      </trkpt>
      <trkpt lat="47.26732" lon="4.89973">
        <ele>599</ele>
        <time>2021-04-20T12:33:06.000Z</time>
      </trkpt>
      <trkpt lat="47.26721" lon="4.89971">
        <ele>607</ele>
        <time>2021-04-20T12:33:34.000Z</time>
      </trkpt>
      <trkpt lat="47.26711" lon="4.89971">
        <ele>608</ele>
        <time>2021-04-20T12:33:39.000Z</time>
      </trkpt>
      <trkpt lat="47.26696" lon="4.89971">
        <ele>607</ele>
        <time>2021-04-20T12:33:45.000Z</time>
      </trkpt>
      <trkpt lat="47.26686" lon="4.8997">
        <ele>605</ele>
        <time>2021-04-20T12:33:51.000Z</time>
      </trkpt>
      <trkpt lat="47.26676" lon="4.89966">
        <ele>601</ele>
        <time>2021-04-20T12:33:58.000Z</time>
      </trkpt>
      <trkpt lat="47.26665" lon="4.89962">
        <ele>601</ele>
        <time>2021-04-20T12:34:07.000Z</time>
      </trkpt>
      <trkpt lat="47.26655" lon="4.89968">
        <ele>601</ele>
        <time>2021-04-20T12:34:15.000Z</time>
      </trkpt>
      <trkpt lat="47.26644" lon="4.89957">
        <ele>605</ele>
        <time>2021-04-20T12:34:27.000Z</time>
      </trkpt>
      <trkpt lat="47.26635" lon="4.89952">
        <ele>607</ele>
        <time>2021-04-20T12:34:35.000Z</time>
      </trkpt>
      <trkpt lat="47.26625" lon="4.89958">
        <ele>605</ele>
        <time>2021-04-20T12:34:44.000Z</time>
      </trkpt>
      <trkpt lat="47.26615" lon="4.89958">
        <ele>603</ele>
        <time>2021-04-20T12:34:53.000Z</time>
      </trkpt>
      <trkpt lat="47.26605" lon="4.8996">
        <ele>606</ele>
        <time>2021-04-20T12:35:09.000Z</time>
      </trkpt>
      <trkpt lat="47.26594" lon="4.8996">
        <ele>608</ele>
        <time>2021-04-20T12:35:22.000Z</time>
      </trkpt>
      <trkpt lat="47.2658" lon="4.8996">
        <ele>612</ele>
        <time>2021-04-20T12:35:49.000Z</time>
      </trkpt>
      <trkpt lat="47.26567" lon="4.89957">
        <ele>607</ele>
        <time>2021-04-20T12:35:55.000Z</time>
      </trkpt>
      <trkpt lat="47.26553" lon="4.89959">
        <ele>602</ele>
        <time>2021-04-20T12:36:04.000Z</time>
      </trkpt>
      <trkpt lat="47.26541" lon="4.89962">
        <ele>605</ele>
        <time>2021-04-20T12:36:15.000Z</time>
      </trkpt>
      <trkpt lat="47.2653" lon="4.89959">
        <ele>605</ele>
        <time>2021-04-20T12:36:24.000Z</time>
      </trkpt>
      <trkpt lat="47.26521" lon="4.89959">
        <ele>601</ele>
        <time>2021-04-20T12:36:33.000Z</time>
      </trkpt>
      <trkpt lat="47.26508" lon="4.89963">
        <ele>602</ele>
        <time>2021-04-20T12:36:42.000Z</time>
      </trkpt>
      <trkpt lat="47.26499" lon="4.89955">
        <ele>599</ele>
        <time>2021-04-20T12:36:51.000Z</time>
      </trkpt>
      <trkpt lat="47.26486" lon="4.89951">
        <ele>603</ele>
        <time>2021-04-20T12:37:03.000Z</time>
      </trkpt>
      <trkpt lat="47.26477" lon="4.89949">
        <ele>604</ele>
        <time>2021-04-20T12:37:09.000Z</time>
      </trkpt>
      <trkpt lat="47.26466" lon="4.89947">
        <ele>606</ele>
        <time>2021-04-20T12:37:18.000Z</time>
      </trkpt>
      <trkpt lat="47.26455" lon="4.89946">
        <ele>605</ele>
        <time>2021-04-20T12:37:27.000Z</time>
      </trkpt>
      <trkpt lat="47.26446" lon="4.89942">
        <ele>602</ele>
        <time>2021-04-20T12:37:37.000Z</time>
      </trkpt>
      <trkpt lat="47.26435" lon="4.89942">
        <ele>604</ele>
        <time>2021-04-20T12:37:46.000Z</time>
      </trkpt>
      <trkpt lat="47.26424" lon="4.89939">
        <ele>604</ele>
        <time>2021-04-20T12:37:56.000Z</time>
      </trkpt>
      <trkpt lat="47.26414" lon="4.89944">
        <ele>602</ele>
        <time>2021-04-20T12:38:11.000Z</time>
      </trkpt>
      <trkpt lat="47.26405" lon="4.8995">
        <ele>600</ele>
        <time>2021-04-20T12:38:21.000Z</time>
      </trkpt>
      <trkpt lat="47.26393" lon="4.89955">
        <ele>602</ele>
        <time>2021-04-20T12:38:36.000Z</time>
      </trkpt>
      <trkpt lat="47.26384" lon="4.89961">
        <ele>603</ele>
        <time>2021-04-20T12:38:42.000Z</time>
      </trkpt>
      <trkpt lat="47.26373" lon="4.89967">
        <ele>598</ele>
        <time>2021-04-20T12:38:51.000Z</time>
      </trkpt>
      <trkpt lat="47.26364" lon="4.89972">
        <ele>597</ele>
        <time>2021-04-20T12:39:00.000Z</time>
      </trkpt>
      <trkpt lat="47.26355" lon="4.89969">
        <ele>591</ele>
        <time>2021-04-20T12:39:31.000Z</time>
      </trkpt>
      <trkpt lat="47.26346" lon="4.89968">
        <ele>586</ele>
        <time>2021-04-20T12:39:38.000Z</time>
      </trkpt>
      <trkpt lat="47.26333" lon="4.89969">
        <ele>589</ele>
        <time>2021-04-20T12:39:46.000Z</time>
      </trkpt>
      <trkpt lat="47.26324" lon="4.89971">
        <ele>587</ele>
        <time>2021-04-20T12:39:55.000Z</time>
      </trkpt>
      <trkpt lat="47.26313" lon="4.89979">
        <ele>589</ele>
        <time>2021-04-20T12:40:03.000Z</time>
      </trkpt>
      <trkpt lat="47.26305" lon="4.89989">
        <ele>589</ele>
        <time>2021-04-20T12:40:12.000Z</time>
      </trkpt>
      <trkpt lat="47.26298" lon="4.9">
        <ele>589</ele>
        <time>2021-04-20T12:40:24.000Z</time>
      </trkpt>
      <trkpt lat="47.2629" lon="4.90006">
        <ele>589</ele>
        <time>2021-04-20T12:40:31.000Z</time>
      </trkpt>
      <trkpt lat="47.26299" lon="4.90005">
        <ele>584</ele>
        <time>2021-04-20T12:41:34.000Z</time>
      </trkpt>
      <trkpt lat="47.26309" lon="4.90011">
        <ele>580</ele>
        <time>2021-04-20T12:42:04.000Z</time>
      </trkpt>
      <trkpt lat="47.26322" lon="4.90018">
        <ele>581</ele>
        <time>2021-04-20T12:42:10.000Z</time>
      </trkpt>
      <trkpt lat="47.26327" lon="4.9003">
        <ele>587</ele>
        <time>2021-04-20T12:42:16.000Z</time>
      </trkpt>
      <trkpt lat="47.26337" lon="4.90036">
        <ele>591</ele>
        <time>2021-04-20T12:42:28.000Z</time>
      </trkpt>
      <trkpt lat="47.26346" lon="4.90039">
        <ele>586</ele>
        <time>2021-04-20T12:43:11.000Z</time>
      </trkpt>
      <trkpt lat="47.26356" lon="4.90038">
        <ele>588</ele>
        <time>2021-04-20T12:43:41.000Z</time>
      </trkpt>
      <trkpt lat="47.26369" lon="4.90045">
        <ele>579</ele>
        <time>2021-04-20T12:44:17.000Z</time>
      </trkpt>
      <trkpt lat="47.26379" lon="4.90057">
        <ele>570</ele>
        <time>2021-04-20T12:44:26.000Z</time>
      </trkpt>
      <trkpt lat="47.26389" lon="4.90067">
        <ele>569</ele>
        <time>2021-04-20T12:44:34.000Z</time>
      </trkpt>
      <trkpt lat="47.26396" lon="4.90075">
        <ele>572</ele>
        <time>2021-04-20T12:45:16.000Z</time>
      </trkpt>
      <trkpt lat="47.26405" lon="4.90084">
        <ele>567</ele>
        <time>2021-04-20T12:45:25.000Z</time>
      </trkpt>
      <trkpt lat="47.26411" lon="4.90094">
        <ele>563</ele>
        <time>2021-04-20T12:45:37.000Z</time>
      </trkpt>
      <trkpt lat="47.2642" lon="4.90097">
        <ele>564</ele>
        <time>2021-04-20T12:45:43.000Z</time>
      </trkpt>
      <trkpt lat="47.26431" lon="4.90099">
        <ele>564</ele>
        <time>2021-04-20T12:46:01.000Z</time>
      </trkpt>
      <trkpt lat="47.26439" lon="4.90107">
        <ele>559</ele>
        <time>2021-04-20T12:46:49.000Z</time>
      </trkpt>
      <trkpt lat="47.26445" lon="4.90117">
        <ele>565</ele>
        <time>2021-04-20T12:47:04.000Z</time>
      </trkpt>
      <trkpt lat="47.26445" lon="4.90132">
        <ele>559</ele>
        <time>2021-04-20T12:47:16.000Z</time>
      </trkpt>
      <trkpt lat="47.26443" lon="4.90147">
        <ele>558</ele>
        <time>2021-04-20T12:47:28.000Z</time>
      </trkpt>
      <trkpt lat="47.26452" lon="4.90156">
        <ele>557</ele>
        <time>2021-04-20T12:48:01.000Z</time>
      </trkpt>
      <trkpt lat="47.26443" lon="4.90162">
        <ele>551</ele>
        <time>2021-04-20T12:48:22.000Z</time>
      </trkpt>
      <trkpt lat="47.26446" lon="4.90177">
        <ele>554</ele>
        <time>2021-04-20T12:48:31.000Z</time>
      </trkpt>
      <trkpt lat="47.26454" lon="4.90191">
        <ele>553</ele>
        <time>2021-04-20T12:49:01.000Z</time>
      </trkpt>
      <trkpt lat="47.26465" lon="4.90198">
        <ele>546</ele>
        <time>2021-04-20T12:49:16.000Z</time>
      </trkpt>
      <trkpt lat="47.26474" lon="4.90202">
        <ele>546</ele>
        <time>2021-04-20T12:49:22.000Z</time>
      </trkpt>
      <trkpt lat="47.26485" lon="4.90204">
        <ele>542</ele>
        <time>2021-04-20T12:49:48.000Z</time>
      </trkpt>
      <trkpt lat="47.26494" lon="4.90209">
        <ele>537</ele>
        <time>2021-04-20T12:49:54.000Z</time>
      </trkpt>
      <trkpt lat="47.26499" lon="4.90219">
        <ele>536</ele>
        <time>2021-04-20T12:50:00.000Z</time>
      </trkpt>
      <trkpt lat="47.26502" lon="4.90233">
        <ele>534</ele>
        <time>2021-04-20T12:50:16.000Z</time>
      </trkpt>
      <trkpt lat="47.2651" lon="4.90242">
        <ele>528</ele>
        <time>2021-04-20T12:50:37.000Z</time>
      </trkpt>
      <trkpt lat="47.26517" lon="4.90253">
        <ele>531</ele>
        <time>2021-04-20T12:51:13.000Z</time>
      </trkpt>
      <trkpt lat="47.26522" lon="4.90263">
        <ele>525</ele>
        <time>2021-04-20T12:51:25.000Z</time>
      </trkpt>
      <trkpt lat="47.26529" lon="4.90279">
        <ele>525</ele>
        <time>2021-04-20T12:51:34.000Z</time>
      </trkpt>
      <trkpt lat="47.26537" lon="4.90288">
        <ele>524</ele>
        <time>2021-04-20T12:51:54.000Z</time>
      </trkpt>
      <trkpt lat="47.26548" lon="4.9029">
        <ele>520</ele>
        <time>2021-04-20T12:52:09.000Z</time>
      </trkpt>
      <trkpt lat="47.26557" lon="4.90292">
        <ele>523</ele>
        <time>2021-04-20T12:52:18.000Z</time>
      </trkpt>
      <trkpt lat="47.26565" lon="4.90301">
        <ele>513</ele>
        <time>2021-04-20T12:52:30.000Z</time>
      </trkpt>
      <trkpt lat="47.26569" lon="4.90317">
        <ele>511</ele>
        <time>2021-04-20T12:52:48.000Z</time>
      </trkpt>
      <trkpt lat="47.2658" lon="4.90324">
        <ele>514</ele>
        <time>2021-04-20T12:52:57.000Z</time>
      </trkpt>
      <trkpt lat="47.26589" lon="4.90329">
        <ele>515</ele>
        <time>2021-04-20T12:53:09.000Z</time>
      </trkpt>
      <trkpt lat="47.26603" lon="4.9033">
        <ele>505</ele>
        <time>2021-04-20T12:53:45.000Z</time>
      </trkpt>
      <trkpt lat="47.26616" lon="4.9032">
        <ele>505</ele>
        <time>2021-04-20T12:53:48.000Z</time>
      </trkpt>
      <trkpt lat="47.26629" lon="4.90309">
        <ele>503</ele>
        <time>2021-04-20T12:53:51.000Z</time>
      </trkpt>
      <trkpt lat="47.26626" lon="4.90325">
        <ele>502</ele>
        <time>2021-04-20T12:53:57.000Z</time>
      </trkpt>
      <trkpt lat="47.26622" lon="4.90339">
        <ele>499</ele>
        <time>2021-04-20T12:54:06.000Z</time>
      </trkpt>
      <trkpt lat="47.26627" lon="4.90352">
        <ele>496</ele>
        <time>2021-04-20T12:54:42.000Z</time>
      </trkpt>
      <trkpt lat="47.26636" lon="4.90361">
        <ele>499</ele>
        <time>2021-04-20T12:54:51.000Z</time>
      </trkpt>
      <trkpt lat="47.26646" lon="4.9036">
        <ele>504</ele>
        <time>2021-04-20T12:55:13.000Z</time>
      </trkpt>
      <trkpt lat="47.26652" lon="4.90372">
        <ele>504</ele>
        <time>2021-04-20T12:56:04.000Z</time>
      </trkpt>
      <trkpt lat="47.26664" lon="4.90381">
        <ele>502</ele>
        <time>2021-04-20T12:56:16.000Z</time>
      </trkpt>
      <trkpt lat="47.26673" lon="4.90387">
        <ele>497</ele>
        <time>2021-04-20T12:56:23.000Z</time>
      </trkpt>
      <trkpt lat="47.26682" lon="4.90389">
        <ele>518</ele>
        <time>2021-04-20T12:58:03.000Z</time>
      </trkpt>
      <trkpt lat="47.2669" lon="4.90395">
        <ele>514</ele>
        <time>2021-04-20T12:58:14.000Z</time>
      </trkpt>
      <trkpt lat="47.26697" lon="4.90405">
        <ele>511</ele>
        <time>2021-04-20T12:58:28.000Z</time>
      </trkpt>
      <trkpt lat="47.26705" lon="4.90411">
        <ele>509</ele>
        <time>2021-04-20T12:58:42.000Z</time>
      </trkpt>
      <trkpt lat="47.26714" lon="4.90417">
        <ele>505</ele>
        <time>2021-04-20T12:58:53.000Z</time>
      </trkpt>
      <trkpt lat="47.26723" lon="4.90421">
        <ele>504</ele>
        <time>2021-04-20T12:59:15.000Z</time>
      </trkpt>
      <trkpt lat="47.26732" lon="4.90428">
        <ele>494</ele>
        <time>2021-04-20T12:59:26.000Z</time>
      </trkpt>
      <trkpt lat="47.2674" lon="4.90433">
        <ele>482</ele>
        <time>2021-04-20T12:59:33.000Z</time>
      </trkpt>
      <trkpt lat="47.26751" lon="4.9044">
        <ele>483</ele>
        <time>2021-04-20T12:59:55.000Z</time>
      </trkpt>
      <trkpt lat="47.26759" lon="4.90445">
        <ele>484</ele>
        <time>2021-04-20T13:00:26.000Z</time>
      </trkpt>
      <trkpt lat="47.26771" lon="4.90448">
        <ele>475</ele>
        <time>2021-04-20T13:00:43.000Z</time>
      </trkpt>
      <trkpt lat="47.2678" lon="4.90456">
        <ele>471</ele>
        <time>2021-04-20T13:00:57.000Z</time>
      </trkpt>
      <trkpt lat="47.26792" lon="4.90453">
        <ele>472</ele>
        <time>2021-04-20T13:01:03.000Z</time>
      </trkpt>
      <trkpt lat="47.26801" lon="4.90463">
        <ele>468</ele>
        <time>2021-04-20T13:01:13.000Z</time>
      </trkpt>
      <trkpt lat="47.26803" lon="4.90479">
        <ele>464</ele>
        <time>2021-04-20T13:01:40.000Z</time>
      </trkpt>
      <trkpt lat="47.26801" lon="4.90493">
        <ele>469</ele>
        <time>2021-04-20T13:01:59.000Z</time>
      </trkpt>
      <trkpt lat="47.26807" lon="4.90504">
        <ele>462</ele>
        <time>2021-04-20T13:02:29.000Z</time>
      </trkpt>
      <trkpt lat="47.26811" lon="4.90517">
        <ele>462</ele>
        <time>2021-04-20T13:02:38.000Z</time>
      </trkpt>
      <trkpt lat="47.26816" lon="4.90536">
        <ele>462</ele>
        <time>2021-04-20T13:02:52.000Z</time>
      </trkpt>
      <trkpt lat="47.26821" lon="4.90549">
        <ele>467</ele>
        <time>2021-04-20T13:03:06.000Z</time>
      </trkpt>
      <trkpt lat="47.26829" lon="4.90562">
        <ele>465</ele>
        <time>2021-04-20T13:03:21.000Z</time>
      </trkpt>
      <trkpt lat="47.26835" lon="4.90576">
        <ele>463</ele>
        <time>2021-04-20T13:03:30.000Z</time>
      </trkpt>
      <trkpt lat="47.26837" lon="4.90589">
        <ele>458</ele>
        <time>2021-04-20T13:03:51.000Z</time>
      </trkpt>
      <trkpt lat="47.26843" lon="4.90601">
        <ele>454</ele>
        <time>2021-04-20T13:04:03.000Z</time>
      </trkpt>
      <trkpt lat="47.26852" lon="4.90606">
        <ele>464</ele>
        <time>2021-04-20T13:04:12.000Z</time>
      </trkpt>
      <trkpt lat="47.26862" lon="4.90605">
        <ele>467</ele>
        <time>2021-04-20T13:04:19.000Z</time>
      </trkpt>
      <trkpt lat="47.26874" lon="4.90603">
        <ele>497</ele>
        <time>2021-04-20T13:04:55.000Z</time>
      </trkpt>
      <trkpt lat="47.26883" lon="4.90601">
        <ele>481</ele>
        <time>2021-04-20T13:05:04.000Z</time>
      </trkpt>
      <trkpt lat="47.26897" lon="4.90601">
        <ele>481</ele>
        <time>2021-04-20T13:05:21.000Z</time>
      </trkpt>
      <trkpt lat="47.26907" lon="4.90595">
        <ele>475</ele>
        <time>2021-04-20T13:05:30.000Z</time>
      </trkpt>
      <trkpt lat="47.26917" lon="4.90588">
        <ele>480</ele>
        <time>2021-04-20T13:05:42.000Z</time>
      </trkpt>
      <trkpt lat="47.26926" lon="4.90581">
        <ele>483</ele>
        <time>2021-04-20T13:05:52.000Z</time>
      </trkpt>
      <trkpt lat="47.26935" lon="4.90582">
        <ele>483</ele>
        <time>2021-04-20T13:05:59.000Z</time>
      </trkpt>
      <trkpt lat="47.26946" lon="4.90578">
        <ele>491</ele>
        <time>2021-04-20T13:06:09.000Z</time>
      </trkpt>
      <trkpt lat="47.26957" lon="4.90572">
        <ele>487</ele>
        <time>2021-04-20T13:06:18.000Z</time>
      </trkpt>
      <trkpt lat="47.26968" lon="4.90572">
        <ele>492</ele>
        <time>2021-04-20T13:06:26.000Z</time>
      </trkpt>
      <trkpt lat="47.26975" lon="4.9056">
        <ele>493</ele>
        <time>2021-04-20T13:06:34.000Z</time>
      </trkpt>
      <trkpt lat="47.26985" lon="4.9055">
        <ele>498</ele>
        <time>2021-04-20T13:06:43.000Z</time>
      </trkpt>
      <trkpt lat="47.26996" lon="4.90548">
        <ele>495</ele>
        <time>2021-04-20T13:06:52.000Z</time>
      </trkpt>
      <trkpt lat="47.27005" lon="4.9055">
        <ele>490</ele>
        <time>2021-04-20T13:07:02.000Z</time>
      </trkpt>
      <trkpt lat="47.27019" lon="4.9055">
        <ele>482</ele>
        <time>2021-04-20T13:07:29.000Z</time>
      </trkpt>
      <trkpt lat="47.27027" lon="4.90558">
        <ele>483</ele>
        <time>2021-04-20T13:07:39.000Z</time>
      </trkpt>
      <trkpt lat="47.27038" lon="4.90556">
        <ele>487</ele>
        <time>2021-04-20T13:07:56.000Z</time>
      </trkpt>
      <trkpt lat="47.2705" lon="4.9056">
        <ele>486</ele>
        <time>2021-04-20T13:08:05.000Z</time>
      </trkpt>
      <trkpt lat="47.27061" lon="4.90561">
        <ele>487</ele>
        <time>2021-04-20T13:08:16.000Z</time>
      </trkpt>
      <trkpt lat="47.27072" lon="4.90574">
        <ele>486</ele>
        <time>2021-04-20T13:08:28.000Z</time>
      </trkpt>
      <trkpt lat="47.27083" lon="4.90579">
        <ele>491</ele>
        <time>2021-04-20T13:08:38.000Z</time>
      </trkpt>
      <trkpt lat="47.27091" lon="4.9059">
        <ele>490</ele>
        <time>2021-04-20T13:08:50.000Z</time>
      </trkpt>
      <trkpt lat="47.27101" lon="4.90597">
        <ele>477</ele>
        <time>2021-04-20T13:08:59.000Z</time>
      </trkpt>
      <trkpt lat="47.27112" lon="4.90604">
        <ele>476</ele>
        <time>2021-04-20T13:09:14.000Z</time>
      </trkpt>
      <trkpt lat="47.27121" lon="4.90607">
        <ele>475</ele>
        <time>2021-04-20T13:09:20.000Z</time>
      </trkpt>
      <trkpt lat="47.2713" lon="4.90613">
        <ele>474</ele>
        <time>2021-04-20T13:09:26.000Z</time>
      </trkpt>
      <trkpt lat="47.27137" lon="4.90624">
        <ele>473</ele>
        <time>2021-04-20T13:09:41.000Z</time>
      </trkpt>
      <trkpt lat="47.27143" lon="4.90635">
        <ele>474</ele>
        <time>2021-04-20T13:09:52.000Z</time>
      </trkpt>
      <trkpt lat="47.27153" lon="4.90645">
        <ele>473</ele>
        <time>2021-04-20T13:10:00.000Z</time>
      </trkpt>
      <trkpt lat="47.27161" lon="4.90654">
        <ele>475</ele>
        <time>2021-04-20T13:10:06.000Z</time>
      </trkpt>
      <trkpt lat="47.27169" lon="4.90661">
        <ele>473</ele>
        <time>2021-04-20T13:10:12.000Z</time>
      </trkpt>
      <trkpt lat="47.27181" lon="4.90672">
        <ele>471</ele>
        <time>2021-04-20T13:10:19.000Z</time>
      </trkpt>
      <trkpt lat="47.2719" lon="4.90678">
        <ele>475</ele>
        <time>2021-04-20T13:10:28.000Z</time>
      </trkpt>
      <trkpt lat="47.272" lon="4.90681">
        <ele>473</ele>
        <time>2021-04-20T13:10:34.000Z</time>
      </trkpt>
      <trkpt lat="47.27207" lon="4.90692">
        <ele>474</ele>
        <time>2021-04-20T13:10:50.000Z</time>
      </trkpt>
      <trkpt lat="47.27217" lon="4.90696">
        <ele>470</ele>
        <time>2021-04-20T13:10:58.000Z</time>
      </trkpt>
      <trkpt lat="47.27226" lon="4.90702">
        <ele>472</ele>
        <time>2021-04-20T13:11:09.000Z</time>
      </trkpt>
      <trkpt lat="47.27236" lon="4.90713">
        <ele>469</ele>
        <time>2021-04-20T13:11:18.000Z</time>
      </trkpt>
      <trkpt lat="47.27251" lon="4.90718">
        <ele>463</ele>
        <time>2021-04-20T13:11:24.000Z</time>
      </trkpt>
      <trkpt lat="47.27261" lon="4.90723">
        <ele>459</ele>
        <time>2021-04-20T13:11:32.000Z</time>
      </trkpt>
      <trkpt lat="47.2727" lon="4.90728">
        <ele>455</ele>
        <time>2021-04-20T13:11:40.000Z</time>
      </trkpt>
      <trkpt lat="47.2728" lon="4.90735">
        <ele>445</ele>
        <time>2021-04-20T13:11:49.000Z</time>
      </trkpt>
      <trkpt lat="47.27285" lon="4.90747">
        <ele>442</ele>
        <time>2021-04-20T13:12:25.000Z</time>
      </trkpt>
      <trkpt lat="47.27294" lon="4.90753">
        <ele>436</ele>
        <time>2021-04-20T13:12:31.000Z</time>
      </trkpt>
      <trkpt lat="47.27301" lon="4.90761">
        <ele>436</ele>
        <time>2021-04-20T13:12:41.000Z</time>
      </trkpt>
      <trkpt lat="47.27314" lon="4.90768">
        <ele>432</ele>
        <time>2021-04-20T13:12:53.000Z</time>
      </trkpt>
      <trkpt lat="47.27323" lon="4.90772">
        <ele>434</ele>
        <time>2021-04-20T13:13:05.000Z</time>
      </trkpt>
      <trkpt lat="47.27333" lon="4.90779">
        <ele>437</ele>
        <time>2021-04-20T13:13:26.000Z</time>
      </trkpt>
      <trkpt lat="47.2734" lon="4.90792">
        <ele>432</ele>
        <time>2021-04-20T13:13:35.000Z</time>
      </trkpt>
      <trkpt lat="47.27337" lon="4.90809">
        <ele>431</ele>
        <time>2021-04-20T13:13:44.000Z</time>
      </trkpt>
      <trkpt lat="47.27334" lon="4.90824">
        <ele>432</ele>
        <time>2021-04-20T13:13:55.000Z</time>
      </trkpt>
      <trkpt lat="47.27332" lon="4.90839">
        <ele>434</ele>
        <time>2021-04-20T13:14:04.000Z</time>
      </trkpt>
      <trkpt lat="47.27331" lon="4.90853">
        <ele>436</ele>
        <time>2021-04-20T13:14:13.000Z</time>
      </trkpt>
      <trkpt lat="47.2733" lon="4.90867">
        <ele>435</ele>
        <time>2021-04-20T13:14:22.000Z</time>
      </trkpt>
      <trkpt lat="47.27331" lon="4.90881">
        <ele>440</ele>
        <time>2021-04-20T13:14:31.000Z</time>
      </trkpt>
      <trkpt lat="47.27336" lon="4.90896">
        <ele>441</ele>
        <time>2021-04-20T13:14:42.000Z</time>
      </trkpt>
      <trkpt lat="47.27341" lon="4.90907">
        <ele>442</ele>
        <time>2021-04-20T13:14:51.000Z</time>
      </trkpt>
      <trkpt lat="47.27341" lon="4.90924">
        <ele>441</ele>
        <time>2021-04-20T13:15:03.000Z</time>
      </trkpt>
      <trkpt lat="47.27345" lon="4.90938">
        <ele>443</ele>
        <time>2021-04-20T13:15:13.000Z</time>
      </trkpt>
      <trkpt lat="47.27345" lon="4.90952">
        <ele>443</ele>
        <time>2021-04-20T13:15:21.000Z</time>
      </trkpt>
      <trkpt lat="47.27343" lon="4.90966">
        <ele>443</ele>
        <time>2021-04-20T13:15:29.000Z</time>
      </trkpt>
      <trkpt lat="47.2734" lon="4.9098">
        <ele>444</ele>
        <time>2021-04-20T13:15:38.000Z</time>
      </trkpt>
      <trkpt lat="47.27335" lon="4.90996">
        <ele>444</ele>
        <time>2021-04-20T13:15:59.000Z</time>
      </trkpt>
      <trkpt lat="47.27335" lon="4.91009">
        <ele>446</ele>
        <time>2021-04-20T13:16:17.000Z</time>
      </trkpt>
      <trkpt lat="47.27336" lon="4.91024">
        <ele>451</ele>
        <time>2021-04-20T13:16:26.000Z</time>
      </trkpt>
      <trkpt lat="47.27338" lon="4.91044">
        <ele>455</ele>
        <time>2021-04-20T13:16:35.000Z</time>
      </trkpt>
      <trkpt lat="47.27342" lon="4.91061">
        <ele>457</ele>
        <time>2021-04-20T13:16:47.000Z</time>
      </trkpt>
      <trkpt lat="47.27352" lon="4.91071">
        <ele>449</ele>
        <time>2021-04-20T13:16:59.000Z</time>
      </trkpt>
      <trkpt lat="47.27351" lon="4.91087">
        <ele>444</ele>
        <time>2021-04-20T13:17:05.000Z</time>
      </trkpt>
      <trkpt lat="47.27353" lon="4.91101">
        <ele>463</ele>
        <time>2021-04-20T13:17:14.000Z</time>
      </trkpt>
      <trkpt lat="47.27364" lon="4.91111">
        <ele>454</ele>
        <time>2021-04-20T13:17:23.000Z</time>
      </trkpt>
      <trkpt lat="47.2737" lon="4.91128">
        <ele>452</ele>
        <time>2021-04-20T13:17:32.000Z</time>
      </trkpt>
      <trkpt lat="47.27372" lon="4.91143">
        <ele>451</ele>
        <time>2021-04-20T13:17:41.000Z</time>
      </trkpt>
      <trkpt lat="47.27374" lon="4.9116">
        <ele>461</ele>
        <time>2021-04-20T13:17:53.000Z</time>
      </trkpt>
      <trkpt lat="47.27375" lon="4.91176">
        <ele>466</ele>
        <time>2021-04-20T13:18:02.000Z</time>
      </trkpt>
      <trkpt lat="47.27371" lon="4.91191">
        <ele>465</ele>
        <time>2021-04-20T13:18:11.000Z</time>
      </trkpt>
      <trkpt lat="47.27367" lon="4.91204">
        <ele>464</ele>
        <time>2021-04-20T13:18:18.000Z</time>
      </trkpt>
      <trkpt lat="47.27369" lon="4.91219">
        <ele>461</ele>
        <time>2021-04-20T13:18:30.000Z</time>
      </trkpt>
      <trkpt lat="47.27375" lon="4.91229">
        <ele>462</ele>
        <time>2021-04-20T13:18:41.000Z</time>
      </trkpt>
      <trkpt lat="47.27375" lon="4.91243">
        <ele>460</ele>
        <time>2021-04-20T13:18:47.000Z</time>
      </trkpt>
      <trkpt lat="47.27377" lon="4.91256">
        <ele>453</ele>
        <time>2021-04-20T13:18:56.000Z</time>
      </trkpt>
      <trkpt lat="47.27385" lon="4.91269">
        <ele>455</ele>
        <time>2021-04-20T13:19:05.000Z</time>
      </trkpt>
      <trkpt lat="47.27388" lon="4.91284">
        <ele>461</ele>
        <time>2021-04-20T13:19:11.000Z</time>
      </trkpt>
      <trkpt lat="47.27391" lon="4.913">
        <ele>461</ele>
        <time>2021-04-20T13:19:23.000Z</time>
      </trkpt>
      <trkpt lat="47.27396" lon="4.91314">
        <ele>465</ele>
        <time>2021-04-20T13:19:35.000Z</time>
      </trkpt>
      <trkpt lat="47.27397" lon="4.91327">
        <ele>466</ele>
        <time>2021-04-20T13:19:44.000Z</time>
      </trkpt>
      <trkpt lat="47.274" lon="4.91341">
        <ele>463</ele>
        <time>2021-04-20T13:19:56.000Z</time>
      </trkpt>
      <trkpt lat="47.27401" lon="4.91355">
        <ele>466</ele>
        <time>2021-04-20T13:20:20.000Z</time>
      </trkpt>
      <trkpt lat="47.27398" lon="4.9137">
        <ele>467</ele>
        <time>2021-04-20T13:20:31.000Z</time>
      </trkpt>
      <trkpt lat="47.27398" lon="4.91384">
        <ele>470</ele>
        <time>2021-04-20T13:20:49.000Z</time>
      </trkpt>
      <trkpt lat="47.27398" lon="4.91398">
        <ele>478</ele>
        <time>2021-04-20T13:21:16.000Z</time>
      </trkpt>
      <trkpt lat="47.27404" lon="4.9141">
        <ele>480</ele>
        <time>2021-04-20T13:21:31.000Z</time>
      </trkpt>
      <trkpt lat="47.27406" lon="4.91425">
        <ele>475</ele>
        <time>2021-04-20T13:21:40.000Z</time>
      </trkpt>
      <trkpt lat="47.27407" lon="4.91442">
        <ele>474</ele>
        <time>2021-04-20T13:21:53.000Z</time>
      </trkpt>
      <trkpt lat="47.27412" lon="4.91454">
        <ele>473</ele>
        <time>2021-04-20T13:22:03.000Z</time>
      </trkpt>
      <trkpt lat="47.27419" lon="4.91467">
        <ele>471</ele>
        <time>2021-04-20T13:22:14.000Z</time>
      </trkpt>
      <trkpt lat="47.27422" lon="4.91481">
        <ele>471</ele>
        <time>2021-04-20T13:22:23.000Z</time>
      </trkpt>
      <trkpt lat="47.27431" lon="4.91487">
        <ele>473</ele>
        <time>2021-04-20T13:22:34.000Z</time>
      </trkpt>
      <trkpt lat="47.2744" lon="4.91495">
        <ele>485</ele>
        <time>2021-04-20T13:23:01.000Z</time>
      </trkpt>
      <trkpt lat="47.27447" lon="4.91503">
        <ele>484</ele>
        <time>2021-04-20T13:23:24.000Z</time>
      </trkpt>
      <trkpt lat="47.27454" lon="4.91513">
        <ele>483</ele>
        <time>2021-04-20T13:23:31.000Z</time>
      </trkpt>
      <trkpt lat="47.27459" lon="4.91524">
        <ele>482</ele>
        <time>2021-04-20T13:23:40.000Z</time>
      </trkpt>
      <trkpt lat="47.2746" lon="4.91537">
        <ele>487</ele>
        <time>2021-04-20T13:23:46.000Z</time>
      </trkpt>
      <trkpt lat="47.27467" lon="4.91549">
        <ele>502</ele>
        <time>2021-04-20T13:23:55.000Z</time>
      </trkpt>
      <trkpt lat="47.27473" lon="4.9156">
        <ele>496</ele>
        <time>2021-04-20T13:24:07.000Z</time>
      </trkpt>
      <trkpt lat="47.27478" lon="4.91571">
        <ele>493</ele>
        <time>2021-04-20T13:24:40.000Z</time>
      </trkpt>
      <trkpt lat="47.27488" lon="4.91572">
        <ele>496</ele>
        <time>2021-04-20T13:25:25.000Z</time>
      </trkpt>
      <trkpt lat="47.27499" lon="4.91575">
        <ele>494</ele>
        <time>2021-04-20T13:25:55.000Z</time>
      </trkpt>
      <trkpt lat="47.27508" lon="4.91579">
        <ele>497</ele>
        <time>2021-04-20T13:29:03.000Z</time>
      </trkpt>
      <trkpt lat="47.2752" lon="4.91584">
        <ele>503</ele>
        <time>2021-04-20T13:29:21.000Z</time>
      </trkpt>
      <trkpt lat="47.2753" lon="4.91585">
        <ele>505</ele>
        <time>2021-04-20T13:29:40.000Z</time>
      </trkpt>
      <trkpt lat="47.27539" lon="4.91594">
        <ele>517</ele>
        <time>2021-04-20T13:29:58.000Z</time>
      </trkpt>
      <trkpt lat="47.27549" lon="4.91595">
        <ele>522</ele>
        <time>2021-04-20T13:30:19.000Z</time>
      </trkpt>
      <trkpt lat="47.27558" lon="4.91601">
        <ele>515</ele>
        <time>2021-04-20T13:30:48.000Z</time>
      </trkpt>
      <trkpt lat="47.27567" lon="4.91597">
        <ele>518</ele>
        <time>2021-04-20T13:30:57.000Z</time>
      </trkpt>
      <trkpt lat="47.27575" lon="4.91606">
        <ele>525</ele>
        <time>2021-04-20T13:31:15.000Z</time>
      </trkpt>
      <trkpt lat="47.27586" lon="4.9161">
        <ele>525</ele>
        <time>2021-04-20T13:31:54.000Z</time>
      </trkpt>
      <trkpt lat="47.27594" lon="4.91616">
        <ele>526</ele>
        <time>2021-04-20T13:32:00.000Z</time>
      </trkpt>
      <trkpt lat="47.27604" lon="4.91625">
        <ele>515</ele>
        <time>2021-04-20T13:32:27.000Z</time>
      </trkpt>
      <trkpt lat="47.27613" lon="4.91628">
        <ele>522</ele>
        <time>2021-04-20T13:32:50.000Z</time>
      </trkpt>
      <trkpt lat="47.27623" lon="4.91624">
        <ele>528</ele>
        <time>2021-04-20T13:32:59.000Z</time>
      </trkpt>
      <trkpt lat="47.27632" lon="4.91627">
        <ele>535</ele>
        <time>2021-04-20T13:33:32.000Z</time>
      </trkpt>
      <trkpt lat="47.27642" lon="4.91628">
        <ele>536</ele>
        <time>2021-04-20T13:33:44.000Z</time>
      </trkpt>
      <trkpt lat="47.2765" lon="4.91635">
        <ele>531</ele>
        <time>2021-04-20T13:34:04.000Z</time>
      </trkpt>
      <trkpt lat="47.27655" lon="4.9165">
        <ele>529</ele>
        <time>2021-04-20T13:34:13.000Z</time>
      </trkpt>
      <trkpt lat="47.27664" lon="4.91663">
        <ele>524</ele>
        <time>2021-04-20T13:34:42.000Z</time>
      </trkpt>
      <trkpt lat="47.2767" lon="4.91674">
        <ele>516</ele>
        <time>2021-04-20T13:34:53.000Z</time>
      </trkpt>
      <trkpt lat="47.2768" lon="4.91675">
        <ele>525</ele>
        <time>2021-04-20T13:35:16.000Z</time>
      </trkpt>
      <trkpt lat="47.2769" lon="4.91668">
        <ele>533</ele>
        <time>2021-04-20T13:35:46.000Z</time>
      </trkpt>
      <trkpt lat="47.277" lon="4.9167">
        <ele>533</ele>
        <time>2021-04-20T13:36:10.000Z</time>
      </trkpt>
      <trkpt lat="47.27707" lon="4.91678">
        <ele>528</ele>
        <time>2021-04-20T13:36:30.000Z</time>
      </trkpt>
      <trkpt lat="47.27715" lon="4.91684">
        <ele>523</ele>
        <time>2021-04-20T13:36:51.000Z</time>
      </trkpt>
      <trkpt lat="47.27724" lon="4.9169">
        <ele>521</ele>
        <time>2021-04-20T13:37:05.000Z</time>
      </trkpt>
      <trkpt lat="47.27734" lon="4.91695">
        <ele>530</ele>
        <time>2021-04-20T13:37:19.000Z</time>
      </trkpt>
      <trkpt lat="47.27743" lon="4.917">
        <ele>531</ele>
        <time>2021-04-20T13:38:35.000Z</time>
      </trkpt>
      <trkpt lat="47.27752" lon="4.91703">
        <ele>531</ele>
        <time>2021-04-20T13:38:48.000Z</time>
      </trkpt>
      <trkpt lat="47.27761" lon="4.91709">
        <ele>536</ele>
        <time>2021-04-20T13:39:05.000Z</time>
      </trkpt>
      <trkpt lat="47.2777" lon="4.91707">
        <ele>546</ele>
        <time>2021-04-20T13:39:48.000Z</time>
      </trkpt>
      <trkpt lat="47.27779" lon="4.91697">
        <ele>550</ele>
        <time>2021-04-20T13:40:01.000Z</time>
      </trkpt>
      <trkpt lat="47.27788" lon="4.91694">
        <ele>551</ele>
        <time>2021-04-20T13:40:13.000Z</time>
      </trkpt>
      <trkpt lat="47.27796" lon="4.91684">
        <ele>555</ele>
        <time>2021-04-20T13:40:34.000Z</time>
      </trkpt>
      <trkpt lat="47.27803" lon="4.91675">
        <ele>552</ele>
        <time>2021-04-20T13:40:51.000Z</time>
      </trkpt>
      <trkpt lat="47.27809" lon="4.91665">
        <ele>551</ele>
        <time>2021-04-20T13:41:03.000Z</time>
      </trkpt>
      <trkpt lat="47.27817" lon="4.91656">
        <ele>550</ele>
        <time>2021-04-20T13:41:29.000Z</time>
      </trkpt>
      <trkpt lat="47.27826" lon="4.9165">
        <ele>555</ele>
        <time>2021-04-20T13:41:47.000Z</time>
      </trkpt>
      <trkpt lat="47.27826" lon="4.91636">
        <ele>543</ele>
        <time>2021-04-20T13:42:08.000Z</time>
      </trkpt>
      <trkpt lat="47.27826" lon="4.91622">
        <ele>540</ele>
        <time>2021-04-20T13:42:20.000Z</time>
      </trkpt>
      <trkpt lat="47.27831" lon="4.91611">
        <ele>540</ele>
        <time>2021-04-20T13:42:29.000Z</time>
      </trkpt>
      <trkpt lat="47.27831" lon="4.91596">
        <ele>542</ele>
        <time>2021-04-20T13:42:38.000Z</time>
      </trkpt>
      <trkpt lat="47.27826" lon="4.91582">
        <ele>543</ele>
        <time>2021-04-20T13:42:49.000Z</time>
      </trkpt>
      <trkpt lat="47.27822" lon="4.91567">
        <ele>545</ele>
        <time>2021-04-20T13:43:00.000Z</time>
      </trkpt>
      <trkpt lat="47.27819" lon="4.91555">
        <ele>550</ele>
        <time>2021-04-20T13:43:08.000Z</time>
      </trkpt>
      <trkpt lat="47.27813" lon="4.91544">
        <ele>550</ele>
        <time>2021-04-20T13:43:17.000Z</time>
      </trkpt>
      <trkpt lat="47.27805" lon="4.91534">
        <ele>545</ele>
        <time>2021-04-20T13:43:36.000Z</time>
      </trkpt>
    </trkseg>
  </trk>
</gpx>